Wetterdaten: Samstag, 22.11.2014
Datum Zeit Temp. Aussen +5cm Feuchte Auss Luftdruck Regen Sonnenschein Regendauer Solar Windben
22.11.2014 00:00 5,2 C 3,3 C 90 % 1019,2 hPa 0,0 l/m 0 min 0 min 0 W/m 16,7 km/h (3 Bft)
22.11.2014 00:02 5,2 C 3,9 C 90 % 1019,2 hPa 0,0 l/m 0 min 0 min 0 W/m 12,6 km/h (3 Bft)
22.11.2014 00:05 5,2 C 3,9 C 90 % 1019,2 hPa 0,0 l/m 0 min 0 min 0 W/m 14,6 km/h (3 Bft)
22.11.2014 00:06 5,2 C 3,9 C 90 % 1019,2 hPa 0,0 l/m 0 min 0 min 0 W/m 14,6 km/h (3 Bft)
22.11.2014 00:08 5,2 C 3,9 C 90 % 1019,2 hPa 0,0 l/m 0 min 0 min 0 W/m 14,6 km/h (3 Bft)
22.11.2014 00:10 5,2 C 3,9 C 90 % 1019,1 hPa 0,0 l/m 0 min 0 min 0 W/m 10,5 km/h (2 Bft)
22.11.2014 00:12 5,2 C 3,9 C 90 % 1019,1 hPa 0,0 l/m 0 min 0 min 0 W/m 8,4 km/h (2 Bft)
22.11.2014 00:14 5,2 C 3,9 C 90 % 1019,1 hPa 0,0 l/m 0 min 0 min 0 W/m 18,8 km/h (3 Bft)
22.11.2014 00:16 5,2 C 3,9 C 90 % 1019,1 hPa 0,0 l/m 0 min 0 min 0 W/m 16,7 km/h (3 Bft)
22.11.2014 00:18 5,2 C 3,9 C 90 % 1019,1 hPa 0,0 l/m 0 min 0 min 0 W/m 18,8 km/h (3 Bft)
22.11.2014 00:20 5,2 C 3,9 C 90 % 1019,2 hPa 0,0 l/m 0 min 0 min 0 W/m 18,8 km/h (3 Bft)
22.11.2014 00:22 5,2 C 3,3 C 90 % 1019,2 hPa 0,0 l/m 0 min 0 min 0 W/m 10,5 km/h (2 Bft)
22.11.2014 00:24 5,1 C 3,3 C 90 % 1019,2 hPa 0,0 l/m 0 min 0 min 0 W/m 14,6 km/h (3 Bft)
22.11.2014 00:26 5,1 C 3,3 C 90 % 1019,2 hPa 0,0 l/m 0 min 0 min 0 W/m 8,4 km/h (2 Bft)
22.11.2014 00:28 5,1 C 3,9 C 90 % 1019,1 hPa 0,0 l/m 0 min 0 min 0 W/m 12,6 km/h (3 Bft)
22.11.2014 00:30 5,1 C 3,3 C 90 % 1019,1 hPa 0,0 l/m 0 min 0 min 0 W/m 16,7 km/h (3 Bft)
22.11.2014 00:32 5,1 C 3,3 C 90 % 1019,1 hPa 0,0 l/m 0 min 0 min 0 W/m 8,4 km/h (2 Bft)
22.11.2014 00:34 5,1 C 3,3 C 90 % 1019,1 hPa 0,0 l/m 0 min 0 min 0 W/m 14,6 km/h (3 Bft)
22.11.2014 00:36 5,1 C 3,9 C 90 % 1019,0 hPa 0,0 l/m 0 min 0 min 0 W/m 12,6 km/h (3 Bft)
22.11.2014 00:38 5,1 C 3,3 C 90 % 1019,0 hPa 0,0 l/m 0 min 0 min 0 W/m 8,4 km/h (2 Bft)
22.11.2014 00:40 5,1 C 3,3 C 90 % 1019,1 hPa 0,0 l/m 0 min 0 min 0 W/m 10,5 km/h (2 Bft)
22.11.2014 00:42 5,1 C 3,3 C 90 % 1019,2 hPa 0,0 l/m 0 min 0 min 0 W/m 14,6 km/h (3 Bft)
22.11.2014 00:44 5,1 C 3,3 C 90 % 1019,1 hPa 0,0 l/m 0 min 0 min 0 W/m 10,5 km/h (2 Bft)
22.11.2014 00:46 5,1 C 3,3 C 90 % 1019,1 hPa 0,0 l/m 0 min 0 min 0 W/m 10,5 km/h (2 Bft)
22.11.2014 00:48 5,0 C 3,3 C 90 % 1019,2 hPa 0,0 l/m 0 min 0 min 0 W/m 16,7 km/h (3 Bft)
22.11.2014 00:50 5,0 C 3,3 C 90 % 1019,2 hPa 0,0 l/m 0 min 0 min 0 W/m 8,4 km/h (2 Bft)
22.11.2014 00:52 5,0 C 3,3 C 90 % 1019,1 hPa 0,0 l/m 0 min 0 min 0 W/m 6,3 km/h (2 Bft)
22.11.2014 00:54 5,0 C 3,3 C 90 % 1019,0 hPa 0,0 l/m 0 min 0 min 0 W/m 10,5 km/h (2 Bft)
22.11.2014 00:56 5,0 C 3,3 C 90 % 1019,1 hPa 0,0 l/m 0 min 0 min 0 W/m 8,4 km/h (2 Bft)
22.11.2014 00:58 4,9 C 3,3 C 90 % 1019,1 hPa 0,0 l/m 0 min 0 min 0 W/m 10,5 km/h (2 Bft)
22.11.2014 01:00 4,9 C 3,3 C 90 % 1019,1 hPa 0,0 l/m 0 min 0 min 0 W/m 10,5 km/h (2 Bft)
22.11.2014 01:02 4,9 C 3,3 C 90 % 1019,1 hPa 0,0 l/m 0 min 0 min 0 W/m 12,6 km/h (3 Bft)
22.11.2014 01:04 4,9 C 3,3 C 90 % 1019,1 hPa 0,0 l/m 0 min 0 min 0 W/m 12,6 km/h (3 Bft)
22.11.2014 01:06 4,9 C 3,3 C 90 % 1019,1 hPa 0,0 l/m 0 min 0 min 0 W/m 12,6 km/h (3 Bft)
22.11.2014 01:08 4,9 C 3,3 C 90 % 1019,0 hPa 0,0 l/m 0 min 0 min 0 W/m 12,6 km/h (3 Bft)
22.11.2014 01:10 4,8 C 3,3 C 90 % 1018,9 hPa 0,0 l/m 0 min 0 min 0 W/m 12,6 km/h (3 Bft)
22.11.2014 01:12 4,8 C 3,3 C 90 % 1019,0 hPa 0,0 l/m 0 min 0 min 0 W/m 14,6 km/h (3 Bft)
22.11.2014 01:14 4,8 C 3,3 C 90 % 1018,9 hPa 0,0 l/m 0 min 0 min 0 W/m 12,6 km/h (3 Bft)
22.11.2014 01:16 4,8 C 3,3 C 90 % 1018,9 hPa 0,0 l/m 0 min 0 min 0 W/m 14,6 km/h (3 Bft)
22.11.2014 01:18 4,8 C 3,3 C 90 % 1018,9 hPa 0,0 l/m 0 min 0 min 0 W/m 16,7 km/h (3 Bft)
22.11.2014 01:20 4,8 C 3,3 C 90 % 1018,9 hPa 0,0 l/m 0 min 0 min 0 W/m 14,6 km/h (3 Bft)
22.11.2014 01:22 4,8 C 3,3 C 90 % 1018,8 hPa 0,0 l/m 0 min 0 min 0 W/m 10,5 km/h (2 Bft)
22.11.2014 01:24 4,8 C 3,3 C 90 % 1018,8 hPa 0,0 l/m 0 min 0 min 0 W/m 10,5 km/h (2 Bft)
22.11.2014 01:26 4,8 C 3,3 C 90 % 1018,8 hPa 0,0 l/m 0 min 0 min 0 W/m 12,6 km/h (3 Bft)
22.11.2014 01:28 4,8 C 3,3 C 90 % 1018,7 hPa 0,0 l/m 0 min 0 min 0 W/m 14,6 km/h (3 Bft)
22.11.2014 01:30 4,8 C 3,3 C 91 % 1018,7 hPa 0,0 l/m 0 min 0 min 0 W/m 12,6 km/h (3 Bft)
22.11.2014 01:32 4,8 C 3,3 C 91 % 1018,7 hPa 0,0 l/m 0 min 0 min 0 W/m 14,6 km/h (3 Bft)
22.11.2014 01:34 4,8 C 3,3 C 91 % 1018,7 hPa 0,0 l/m 0 min 0 min 0 W/m 14,6 km/h (3 Bft)
22.11.2014 01:36 4,8 C 3,3 C 91 % 1018,6 hPa 0,0 l/m 0 min 0 min 0 W/m 8,4 km/h (2 Bft)
22.11.2014 01:38 4,8 C 3,3 C 91 % 1018,6 hPa 0,0 l/m 0 min 0 min 0 W/m 16,7 km/h (3 Bft)
22.11.2014 01:40 4,8 C 3,3 C 91 % 1018,6 hPa 0,0 l/m 0 min 0 min 0 W/m 14,6 km/h (3 Bft)
22.11.2014 01:42 4,8 C 3,3 C 91 % 1018,5 hPa 0,0 l/m 0 min 0 min 0 W/m 14,6 km/h (3 Bft)
22.11.2014 01:44 4,8 C 3,3 C 91 % 1018,4 hPa 0,0 l/m 0 min 0 min 0 W/m 16,7 km/h (3 Bft)
22.11.2014 01:46 4,8 C 3,3 C 91 % 1018,4 hPa 0,0 l/m 0 min 0 min 0 W/m 20,9 km/h (4 Bft)
22.11.2014 01:48 4,8 C 3,3 C 91 % 1018,4 hPa 0,0 l/m 0 min 0 min 0 W/m 16,7 km/h (3 Bft)
22.11.2014 01:50 4,8 C 3,3 C 91 % 1018,3 hPa 0,0 l/m 0 min 0 min 0 W/m 18,8 km/h (3 Bft)
22.11.2014 01:52 4,8 C 3,3 C 91 % 1018,4 hPa 0,0 l/m 0 min 0 min 0 W/m 16,7 km/h (3 Bft)
22.11.2014 01:54 4,8 C 3,3 C 91 % 1018,4 hPa 0,0 l/m 0 min 0 min 0 W/m 14,6 km/h (3 Bft)
22.11.2014 01:56 4,8 C 3,9 C 91 % 1018,3 hPa 0,0 l/m 0 min 0 min 0 W/m 14,6 km/h (3 Bft)
22.11.2014 01:58 4,8 C 3,9 C 91 % 1018,3 hPa 0,0 l/m 0 min 0 min 0 W/m 23,0 km/h (4 Bft)
22.11.2014 02:00 4,8 C 3,9 C 91 % 1018,2 hPa 0,0 l/m 0 min 0 min 0 W/m 16,7 km/h (3 Bft)
22.11.2014 02:02 4,8 C 3,9 C 91 % 1018,3 hPa 0,0 l/m 0 min 0 min 0 W/m 18,8 km/h (3 Bft)
22.11.2014 02:04 4,8 C 3,9 C 91 % 1018,3 hPa 0,0 l/m 0 min 0 min 0 W/m 20,9 km/h (4 Bft)
22.11.2014 02:06 4,8 C 3,9 C 91 % 1018,3 hPa 0,0 l/m 0 min 0 min 0 W/m 18,8 km/h (3 Bft)
22.11.2014 02:08 4,8 C 3,9 C 91 % 1018,2 hPa 0,0 l/m 0 min 0 min 0 W/m 18,8 km/h (3 Bft)
22.11.2014 02:10 4,9 C 3,9 C 91 % 1018,2 hPa 0,0 l/m 0 min 0 min 0 W/m 16,7 km/h (3 Bft)
22.11.2014 02:12 4,9 C 3,9 C 91 % 1018,1 hPa 0,0 l/m 0 min 0 min 0 W/m 16,7 km/h (3 Bft)
22.11.2014 02:14 4,9 C 3,9 C 91 % 1018,1 hPa 0,0 l/m 0 min 0 min 0 W/m 18,8 km/h (3 Bft)
22.11.2014 02:16 4,9 C 3,9 C 91 % 1018,1 hPa 0,0 l/m 0 min 0 min 0 W/m 18,8 km/h (3 Bft)
22.11.2014 02:18 4,9 C 3,9 C 91 % 1018,0 hPa 0,0 l/m 0 min 0 min 0 W/m 14,6 km/h (3 Bft)
22.11.2014 02:20 4,9 C 3,9 C 91 % 1018,2 hPa 0,0 l/m 0 min 0 min 0 W/m 14,6 km/h (3 Bft)
22.11.2014 02:22 4,9 C 3,9 C 91 % 1018,4 hPa 0,0 l/m 0 min 0 min 0 W/m 12,6 km/h (3 Bft)
22.11.2014 02:24 4,9 C 3,9 C 91 % 1018,4 hPa 0,0 l/m 0 min 0 min 0 W/m 16,7 km/h (3 Bft)
22.11.2014 02:26 4,9 C 3,9 C 91 % 1018,4 hPa 0,0 l/m 0 min 0 min 0 W/m 10,5 km/h (2 Bft)
22.11.2014 02:28 4,9 C 3,9 C 91 % 1018,3 hPa 0,0 l/m 0 min 0 min 0 W/m 12,6 km/h (3 Bft)
22.11.2014 02:30 4,9 C 3,9 C 91 % 1018,3 hPa 0,0 l/m 0 min 0 min 0 W/m 14,6 km/h (3 Bft)
22.11.2014 02:32 5,0 C 3,9 C 91 % 1018,3 hPa 0,0 l/m 0 min 0 min 0 W/m 10,5 km/h (2 Bft)
22.11.2014 02:34 5,0 C 3,9 C 91 % 1018,2 hPa 0,0 l/m 0 min 0 min 0 W/m 16,7 km/h (3 Bft)
22.11.2014 02:36 5,0 C 3,9 C 91 % 1018,1 hPa 0,0 l/m 0 min 0 min 0 W/m 10,5 km/h (2 Bft)
22.11.2014 02:38 5,0 C 3,9 C 91 % 1018,1 hPa 0,0 l/m 0 min 0 min 0 W/m 14,6 km/h (3 Bft)
22.11.2014 02:40 5,0 C 3,9 C 91 % 1018,1 hPa 0,0 l/m 0 min 0 min 0 W/m 16,7 km/h (3 Bft)
22.11.2014 02:42 5,0 C 3,9 C 91 % 1018,1 hPa 0,0 l/m 0 min 0 min 0 W/m 10,5 km/h (2 Bft)
22.11.2014 02:44 5,0 C 3,9 C 91 % 1018,1 hPa 0,0 l/m 0 min 0 min 0 W/m 14,6 km/h (3 Bft)
22.11.2014 02:46 5,0 C 3,9 C 91 % 1018,1 hPa 0,0 l/m 0 min 0 min 0 W/m 16,7 km/h (3 Bft)
22.11.2014 02:48 5,0 C 3,9 C 91 % 1018,1 hPa 0,0 l/m 0 min 0 min 0 W/m 16,7 km/h (3 Bft)
22.11.2014 02:50 5,0 C 3,9 C 91 % 1018,1 hPa 0,0 l/m 0 min 0 min 0 W/m 12,6 km/h (3 Bft)
22.11.2014 02:52 4,9 C 3,9 C 91 % 1018,0 hPa 0,0 l/m 0 min 0 min 0 W/m 16,7 km/h (3 Bft)
22.11.2014 02:54 4,9 C 3,3 C 91 % 1018,0 hPa 0,0 l/m 0 min 0 min 0 W/m 14,6 km/h (3 Bft)
22.11.2014 02:56 4,9 C 3,3 C 91 % 1018,2 hPa 0,0 l/m 0 min 0 min 0 W/m 10,5 km/h (2 Bft)
22.11.2014 02:58 4,9 C 3,3 C 91 % 1018,2 hPa 0,0 l/m 0 min 0 min 0 W/m 14,6 km/h (3 Bft)
22.11.2014 03:00 4,9 C 3,3 C 91 % 1018,2 hPa 0,0 l/m 0 min 0 min 0 W/m 10,5 km/h (2 Bft)
22.11.2014 03:02 4,9 C 3,3 C 91 % 1018,3 hPa 0,0 l/m 0 min 0 min 0 W/m 10,5 km/h (2 Bft)
22.11.2014 03:04 4,9 C 3,3 C 91 % 1018,3 hPa 0,0 l/m 0 min 0 min 0 W/m 14,6 km/h (3 Bft)
22.11.2014 03:06 4,9 C 3,9 C 91 % 1018,3 hPa 0,0 l/m 0 min 0 min 0 W/m 12,6 km/h (3 Bft)
22.11.2014 03:08 4,9 C 3,9 C 91 % 1018,4 hPa 0,0 l/m 0 min 0 min 0 W/m 16,7 km/h (3 Bft)
22.11.2014 03:10 4,9 C 3,9 C 91 % 1018,4 hPa 0,0 l/m 0 min 0 min 0 W/m 16,7 km/h (3 Bft)
22.11.2014 03:12 4,9 C 3,9 C 91 % 1018,3 hPa 0,0 l/m 0 min 0 min 0 W/m 20,9 km/h (4 Bft)
22.11.2014 03:14 4,9 C 3,9 C 91 % 1018,3 hPa 0,0 l/m 0 min 0 min 0 W/m 14,6 km/h (3 Bft)
22.11.2014 03:16 4,9 C 3,9 C 91 % 1018,4 hPa 0,0 l/m 0 min 0 min 0 W/m 14,6 km/h (3 Bft)
22.11.2014 03:18 4,9 C 3,9 C 91 % 1018,4 hPa 0,0 l/m 0 min 0 min 0 W/m 12,6 km/h (3 Bft)
22.11.2014 03:20 4,9 C 3,9 C 91 % 1018,5 hPa 0,0 l/m 0 min 0 min 0 W/m 10,5 km/h (2 Bft)
22.11.2014 03:22 4,9 C 3,9 C 91 % 1018,5 hPa 0,0 l/m 0 min 0 min 0 W/m 14,6 km/h (3 Bft)
22.11.2014 03:24 4,9 C 3,9 C 91 % 1018,5 hPa 0,0 l/m 0 min 0 min 0 W/m 12,6 km/h (3 Bft)
22.11.2014 03:26 4,9 C 3,3 C 92 % 1018,5 hPa 0,0 l/m 0 min 0 min 0 W/m 14,6 km/h (3 Bft)
22.11.2014 03:28 4,9 C 3,3 C 92 % 1018,5 hPa 0,0 l/m 0 min 0 min 0 W/m 8,4 km/h (2 Bft)
22.11.2014 03:30 4,9 C 3,3 C 92 % 1018,5 hPa 0,0 l/m 0 min 0 min 0 W/m 10,5 km/h (2 Bft)
22.11.2014 03:32 4,9 C 3,3 C 92 % 1018,4 hPa 0,0 l/m 0 min 0 min 0 W/m 12,6 km/h (3 Bft)
22.11.2014 03:34 4,9 C 3,3 C 92 % 1018,4 hPa 0,0 l/m 0 min 0 min 0 W/m 12,6 km/h (3 Bft)
22.11.2014 03:36 4,9 C 3,3 C 92 % 1018,4 hPa 0,0 l/m 0 min 0 min 0 W/m 10,5 km/h (2 Bft)
22.11.2014 03:38 4,9 C 3,3 C 92 % 1018,4 hPa 0,0 l/m 0 min 0 min 0 W/m 12,6 km/h (3 Bft)
22.11.2014 03:40 4,9 C 3,3 C 92 % 1018,3 hPa 0,0 l/m 0 min 0 min 0 W/m 14,6 km/h (3 Bft)
22.11.2014 03:42 4,9 C 3,3 C 92 % 1018,3 hPa 0,0 l/m 0 min 0 min 0 W/m 12,6 km/h (3 Bft)
22.11.2014 03:44 4,9 C 3,3 C 91 % 1018,4 hPa 0,0 l/m 0 min 0 min 0 W/m 10,5 km/h (2 Bft)
22.11.2014 03:46 4,8 C 3,3 C 91 % 1018,3 hPa 0,0 l/m 0 min 0 min 0 W/m 14,6 km/h (3 Bft)
22.11.2014 03:48 4,8 C 3,3 C 91 % 1018,3 hPa 0,0 l/m 0 min 0 min 0 W/m 16,7 km/h (3 Bft)
22.11.2014 03:50 4,8 C 3,3 C 91 % 1018,3 hPa 0,0 l/m 0 min 0 min 0 W/m 16,7 km/h (3 Bft)
22.11.2014 03:52 4,8 C 3,3 C 91 % 1018,3 hPa 0,0 l/m 0 min 0 min 0 W/m 16,7 km/h (3 Bft)
22.11.2014 03:54 4,8 C 3,3 C 91 % 1018,3 hPa 0,0 l/m 0 min 0 min 0 W/m 16,7 km/h (3 Bft)
22.11.2014 03:56 4,8 C 3,3 C 92 % 1018,3 hPa 0,0 l/m 0 min 0 min 0 W/m 14,6 km/h (3 Bft)
22.11.2014 03:58 4,8 C 3,3 C 92 % 1018,3 hPa 0,0 l/m 0 min 0 min 0 W/m 14,6 km/h (3 Bft)
22.11.2014 04:00 4,8 C 3,3 C 92 % 1018,3 hPa 0,0 l/m 0 min 0 min 0 W/m 12,6 km/h (3 Bft)
22.11.2014 04:02 4,8 C 3,3 C 92 % 1018,3 hPa 0,0 l/m 0 min 0 min 0 W/m 20,9 km/h (4 Bft)
22.11.2014 04:04 4,8 C 3,3 C 92 % 1018,4 hPa 0,0 l/m 0 min 0 min 0 W/m 16,7 km/h (3 Bft)
22.11.2014 04:06 4,8 C 3,3 C 92 % 1018,2 hPa 0,0 l/m 0 min 0 min 0 W/m 18,8 km/h (3 Bft)
22.11.2014 04:08 4,8 C 3,3 C 92 % 1018,2 hPa 0,0 l/m 0 min 0 min 0 W/m 14,6 km/h (3 Bft)
22.11.2014 04:10 4,7 C 3,3 C 92 % 1018,2 hPa 0,0 l/m 0 min 0 min 0 W/m 16,7 km/h (3 Bft)
22.11.2014 04:12 4,7 C 3,3 C 92 % 1018,2 hPa 0,0 l/m 0 min 0 min 0 W/m 12,6 km/h (3 Bft)
22.11.2014 04:14 4,7 C 3,3 C 92 % 1018,2 hPa 0,0 l/m 0 min 0 min 0 W/m 16,7 km/h (3 Bft)
22.11.2014 04:16 4,7 C 3,3 C 92 % 1018,0 hPa 0,0 l/m 0 min 0 min 0 W/m 16,7 km/h (3 Bft)
22.11.2014 04:18 4,7 C 3,3 C 92 % 1018,0 hPa 0,0 l/m 0 min 0 min 0 W/m 18,8 km/h (3 Bft)
22.11.2014 04:20 4,7 C 3,3 C 92 % 1018,0 hPa 0,0 l/m 0 min 0 min 0 W/m 14,6 km/h (3 Bft)
22.11.2014 04:22 4,7 C 3,3 C 92 % 1018,1 hPa 0,0 l/m 0 min 0 min 0 W/m 14,6 km/h (3 Bft)
22.11.2014 04:24 4,7 C 3,3 C 92 % 1018,0 hPa 0,0 l/m 0 min 0 min 0 W/m 14,6 km/h (3 Bft)
22.11.2014 04:26 4,7 C 3,3 C 92 % 1018,0 hPa 0,0 l/m 0 min 0 min 0 W/m 18,8 km/h (3 Bft)
22.11.2014 04:28 4,7 C 3,3 C 92 % 1017,9 hPa 0,0 l/m 0 min 0 min 0 W/m 16,7 km/h (3 Bft)
22.11.2014 04:30 4,7 C 3,3 C 92 % 1018,0 hPa 0,0 l/m 0 min 0 min 0 W/m 14,6 km/h (3 Bft)
22.11.2014 04:32 4,7 C 3,3 C 92 % 1018,1 hPa 0,0 l/m 0 min 0 min 0 W/m 12,6 km/h (3 Bft)
22.11.2014 04:34 4,6 C 3,3 C 92 % 1018,2 hPa 0,0 l/m 0 min 0 min 0 W/m 14,6 km/h (3 Bft)
22.11.2014 04:36 4,6 C 3,3 C 92 % 1018,2 hPa 0,0 l/m 0 min 0 min 0 W/m 14,6 km/h (3 Bft)
22.11.2014 04:38 4,6 C 3,3 C 92 % 1018,2 hPa 0,0 l/m 0 min 0 min 0 W/m 16,7 km/h (3 Bft)
22.11.2014 04:40 4,6 C 3,3 C 92 % 1018,2 hPa 0,0 l/m 0 min 0 min 0 W/m 12,6 km/h (3 Bft)
22.11.2014 04:42 4,6 C 3,3 C 92 % 1018,2 hPa 0,0 l/m 0 min 0 min 0 W/m 14,6 km/h (3 Bft)
22.11.2014 04:44 4,6 C 3,3 C 92 % 1018,2 hPa 0,0 l/m 0 min 0 min 0 W/m 12,6 km/h (3 Bft)
22.11.2014 04:46 4,6 C 3,3 C 92 % 1018,2 hPa 0,0 l/m 0 min 0 min 0 W/m 14,6 km/h (3 Bft)
22.11.2014 04:48 4,6 C 3,3 C 92 % 1018,2 hPa 0,0 l/m 0 min 0 min 0 W/m 16,7 km/h (3 Bft)
22.11.2014 04:50 4,6 C 3,3 C 92 % 1018,2 hPa 0,0 l/m 0 min 0 min 0 W/m 14,6 km/h (3 Bft)
22.11.2014 04:52 4,6 C 3,3 C 92 % 1018,1 hPa 0,0 l/m 0 min 0 min 0 W/m 12,6 km/h (3 Bft)
22.11.2014 04:54 4,5 C 3,3 C 92 % 1018,2 hPa 0,0 l/m 0 min 0 min 0 W/m 14,6 km/h (3 Bft)
22.11.2014 04:56 4,5 C 3,3 C 92 % 1018,1 hPa 0,0 l/m 0 min 0 min 0 W/m 12,6 km/h (3 Bft)
22.11.2014 04:58 4,5 C 3,3 C 92 % 1018,0 hPa 0,0 l/m 0 min 0 min 0 W/m 10,5 km/h (2 Bft)
22.11.2014 05:00 4,5 C 3,3 C 92 % 1017,9 hPa 0,0 l/m 0 min 0 min 0 W/m 14,6 km/h (3 Bft)
22.11.2014 05:02 4,5 C 3,3 C 92 % 1018,0 hPa 0,0 l/m 0 min 0 min 0 W/m 16,7 km/h (3 Bft)
22.11.2014 05:04 4,5 C 3,3 C 92 % 1017,9 hPa 0,0 l/m 0 min 0 min 0 W/m 18,8 km/h (3 Bft)
22.11.2014 05:06 4,5 C 3,3 C 92 % 1017,8 hPa 0,0 l/m 0 min 0 min 0 W/m 16,7 km/h (3 Bft)
22.11.2014 05:08 4,5 C 3,3 C 92 % 1017,8 hPa 0,0 l/m 0 min 0 min 0 W/m 20,9 km/h (4 Bft)
22.11.2014 05:10 4,4 C 3,3 C 92 % 1017,8 hPa 0,0 l/m 0 min 0 min 0 W/m 12,6 km/h (3 Bft)
22.11.2014 05:12 4,4 C 3,3 C 93 % 1017,8 hPa 0,0 l/m 0 min 0 min 0 W/m 10,5 km/h (2 Bft)
22.11.2014 05:14 4,4 C 3,3 C 93 % 1017,8 hPa 0,0 l/m 0 min 0 min 0 W/m 18,8 km/h (3 Bft)
22.11.2014 05:16 4,4 C 3,3 C 93 % 1017,8 hPa 0,0 l/m 0 min 0 min 0 W/m 14,6 km/h (3 Bft)
22.11.2014 05:18 4,4 C 3,3 C 93 % 1017,8 hPa 0,0 l/m 0 min 0 min 0 W/m 16,7 km/h (3 Bft)
22.11.2014 05:20 4,4 C 3,3 C 93 % 1017,9 hPa 0,0 l/m 0 min 0 min 0 W/m 18,8 km/h (3 Bft)
22.11.2014 05:22 4,4 C 3,3 C 93 % 1017,8 hPa 0,0 l/m 0 min 0 min 0 W/m 16,7 km/h (3 Bft)
22.11.2014 05:24 4,4 C 3,3 C 93 % 1017,8 hPa 0,0 l/m 0 min 0 min 0 W/m 16,7 km/h (3 Bft)
22.11.2014 05:26 4,4 C 3,3 C 93 % 1017,8 hPa 0,0 l/m 0 min 0 min 0 W/m 14,6 km/h (3 Bft)
22.11.2014 05:28 4,4 C 3,3 C 93 % 1017,8 hPa 0,0 l/m 0 min 0 min 0 W/m 10,5 km/h (2 Bft)
22.11.2014 05:30 4,4 C 3,3 C 93 % 1017,9 hPa 0,0 l/m 0 min 0 min 0 W/m 10,5 km/h (2 Bft)
22.11.2014 05:32 4,4 C 3,3 C 93 % 1017,8 hPa 0,0 l/m 0 min 0 min 0 W/m 16,7 km/h (3 Bft)
22.11.2014 05:34 4,4 C 3,3 C 93 % 1017,8 hPa 0,0 l/m 0 min 0 min 0 W/m 12,6 km/h (3 Bft)
22.11.2014 05:36 4,4 C 3,3 C 93 % 1017,8 hPa 0,0 l/m 0 min 0 min 0 W/m 16,7 km/h (3 Bft)
22.11.2014 05:38 4,4 C 3,3 C 93 % 1017,8 hPa 0,0 l/m 0 min 0 min 0 W/m 18,8 km/h (3 Bft)
22.11.2014 05:40 4,4 C 3,3 C 93 % 1017,7 hPa 0,0 l/m 0 min 0 min 0 W/m 20,9 km/h (4 Bft)
22.11.2014 05:42 4,4 C 3,3 C 93 % 1017,7 hPa 0,0 l/m 0 min 0 min 0 W/m 18,8 km/h (3 Bft)
22.11.2014 05:44 4,4 C 3,3 C 93 % 1017,7 hPa 0,0 l/m 0 min 0 min 0 W/m 23,0 km/h (4 Bft)
22.11.2014 05:46 4,4 C 3,3 C 93 % 1017,7 hPa 0,0 l/m 0 min 0 min 0 W/m 23,0 km/h (4 Bft)
22.11.2014 05:48 4,4 C 3,3 C 93 % 1017,7 hPa 0,0 l/m 0 min 0 min 0 W/m 16,7 km/h (3 Bft)
22.11.2014 05:50 4,4 C 3,3 C 93 % 1017,7 hPa 0,0 l/m 0 min 0 min 0 W/m 18,8 km/h (3 Bft)
22.11.2014 05:52 4,4 C 3,3 C 93 % 1017,7 hPa 0,0 l/m 0 min 0 min 0 W/m 18,8 km/h (3 Bft)
22.11.2014 05:54 4,4 C 3,3 C 93 % 1017,7 hPa 0,0 l/m 0 min 0 min 0 W/m 20,9 km/h (4 Bft)
22.11.2014 05:56 4,4 C 3,3 C 93 % 1017,7 hPa 0,0 l/m 0 min 0 min 0 W/m 16,7 km/h (3 Bft)
22.11.2014 05:58 4,4 C 3,3 C 93 % 1017,7 hPa 0,0 l/m 0 min 0 min 0 W/m 14,6 km/h (3 Bft)
22.11.2014 06:00 4,4 C 3,3 C 93 % 1017,8 hPa 0,0 l/m 0 min 0 min 0 W/m 16,7 km/h (3 Bft)
22.11.2014 06:02 4,4 C 3,3 C 93 % 1017,7 hPa 0,0 l/m 0 min 0 min 0 W/m 20,9 km/h (4 Bft)
22.11.2014 06:05 4,4 C 3,3 C 93 % 1017,7 hPa 0,0 l/m 0 min 0 min 0 W/m 14,6 km/h (3 Bft)
22.11.2014 06:06 4,3 C 3,3 C 93 % 1017,7 hPa 0,0 l/m 0 min 0 min 0 W/m 18,8 km/h (3 Bft)
22.11.2014 06:08 4,3 C 3,3 C 93 % 1017,7 hPa 0,0 l/m 0 min 0 min 0 W/m 16,7 km/h (3 Bft)
22.11.2014 06:10 4,3 C 3,3 C 93 % 1017,8 hPa 0,0 l/m 0 min 0 min 0 W/m 23,0 km/h (4 Bft)
22.11.2014 06:12 4,3 C 3,3 C 93 % 1017,8 hPa 0,0 l/m 0 min 0 min 0 W/m 16,7 km/h (3 Bft)
22.11.2014 06:14 4,3 C 3,3 C 93 % 1017,8 hPa 0,0 l/m 0 min 0 min 0 W/m 14,6 km/h (3 Bft)
22.11.2014 06:16 4,3 C 3,3 C 93 % 1017,7 hPa 0,0 l/m 0 min 0 min 0 W/m 14,6 km/h (3 Bft)
22.11.2014 06:18 4,3 C 3,3 C 93 % 1017,7 hPa 0,0 l/m 0 min 0 min 0 W/m 10,5 km/h (2 Bft)
22.11.2014 06:20 4,3 C 2,8 C 93 % 1017,7 hPa 0,0 l/m 0 min 0 min 0 W/m 14,6 km/h (3 Bft)
22.11.2014 06:22 4,3 C 3,3 C 93 % 1017,8 hPa 0,0 l/m 0 min 0 min 0 W/m 16,7 km/h (3 Bft)
22.11.2014 06:24 4,3 C 3,3 C 93 % 1017,7 hPa 0,0 l/m 0 min 0 min 0 W/m 16,7 km/h (3 Bft)
22.11.2014 06:26 4,3 C 2,8 C 93 % 1017,7 hPa 0,0 l/m 0 min 0 min 0 W/m 18,8 km/h (3 Bft)
22.11.2014 06:28 4,3 C 2,8 C 93 % 1017,8 hPa 0,0 l/m 0 min 0 min 0 W/m 14,6 km/h (3 Bft)
22.11.2014 06:30 4,3 C 2,8 C 93 % 1017,8 hPa 0,0 l/m 0 min 0 min 0 W/m 14,6 km/h (3 Bft)
22.11.2014 06:32 4,3 C 2,8 C 93 % 1017,7 hPa 0,0 l/m 0 min 0 min 0 W/m 16,7 km/h (3 Bft)
22.11.2014 06:34 4,3 C 3,3 C 93 % 1017,7 hPa 0,0 l/m 0 min 0 min 0 W/m 18,8 km/h (3 Bft)
22.11.2014 06:36 4,3 C 3,3 C 93 % 1017,7 hPa 0,0 l/m 0 min 0 min 0 W/m 18,8 km/h (3 Bft)
22.11.2014 06:38 4,3 C 3,3 C 93 % 1017,6 hPa 0,0 l/m 0 min 0 min 0 W/m 20,9 km/h (4 Bft)
22.11.2014 06:40 4,3 C 3,3 C 93 % 1017,7 hPa 0,0 l/m 0 min 0 min 0 W/m 20,9 km/h (4 Bft)
22.11.2014 06:42 4,3 C 3,3 C 93 % 1017,7 hPa 0,0 l/m 0 min 0 min 0 W/m 23,0 km/h (4 Bft)
22.11.2014 06:44 4,3 C 3,3 C 93 % 1017,8 hPa 0,0 l/m 0 min 0 min 0 W/m 23,0 km/h (4 Bft)
22.11.2014 06:46 4,3 C 3,3 C 93 % 1017,8 hPa 0,0 l/m 0 min 0 min 0 W/m 16,7 km/h (3 Bft)
22.11.2014 06:48 4,3 C 3,3 C 93 % 1017,8 hPa 0,0 l/m 0 min 0 min 0 W/m 14,6 km/h (3 Bft)
22.11.2014 06:50 4,3 C 3,3 C 93 % 1017,8 hPa 0,0 l/m 0 min 0 min 0 W/m 10,5 km/h (2 Bft)
22.11.2014 06:52 4,3 C 3,3 C 93 % 1017,8 hPa 0,0 l/m 0 min 0 min 0 W/m 20,9 km/h (4 Bft)
22.11.2014 06:54 4,3 C 3,3 C 93 % 1017,8 hPa 0,0 l/m 0 min 0 min 0 W/m 16,7 km/h (3 Bft)
22.11.2014 06:56 4,3 C 3,3 C 93 % 1017,8 hPa 0,0 l/m 0 min 0 min 0 W/m 16,7 km/h (3 Bft)
22.11.2014 06:58 4,3 C 2,8 C 93 % 1017,8 hPa 0,0 l/m 0 min 0 min 0 W/m 18,8 km/h (3 Bft)
22.11.2014 07:00 4,3 C 2,8 C 93 % 1017,8 hPa 0,0 l/m 0 min 0 min 0 W/m 18,8 km/h (3 Bft)
22.11.2014 07:02 4,3 C 2,8 C 93 % 1017,9 hPa 0,0 l/m 0 min 0 min 0 W/m 18,8 km/h (3 Bft)
22.11.2014 07:04 4,3 C 2,8 C 93 % 1017,8 hPa 0,0 l/m 0 min 0 min 0 W/m 18,8 km/h (3 Bft)
22.11.2014 07:06 4,3 C 3,3 C 93 % 1017,8 hPa 0,0 l/m 0 min 0 min 0 W/m 18,8 km/h (3 Bft)
22.11.2014 07:08 4,3 C 3,3 C 93 % 1017,8 hPa 0,0 l/m 0 min 0 min 0 W/m 16,7 km/h (3 Bft)
22.11.2014 07:10 4,3 C 3,3 C 93 % 1017,8 hPa 0,0 l/m 0 min 0 min 0 W/m 16,7 km/h (3 Bft)
22.11.2014 07:12 4,3 C 3,3 C 93 % 1017,8 hPa 0,0 l/m 0 min 0 min 0 W/m 16,7 km/h (3 Bft)
22.11.2014 07:14 4,3 C 3,3 C 93 % 1017,8 hPa 0,0 l/m 0 min 0 min 0 W/m 23,0 km/h (4 Bft)
22.11.2014 07:16 4,3 C 3,3 C 93 % 1017,8 hPa 0,0 l/m 0 min 0 min 0 W/m 16,7 km/h (3 Bft)
22.11.2014 07:18 4,3 C 3,3 C 93 % 1017,9 hPa 0,0 l/m 0 min 0 min 0 W/m 16,7 km/h (3 Bft)
22.11.2014 07:20 4,3 C 3,3 C 93 % 1017,9 hPa 0,0 l/m 0 min 0 min 0 W/m 14,6 km/h (3 Bft)
22.11.2014 07:22 4,3 C 3,3 C 93 % 1017,9 hPa 0,0 l/m 0 min 0 min 0 W/m 20,9 km/h (4 Bft)
22.11.2014 07:24 4,3 C 3,3 C 93 % 1018,0 hPa 0,0 l/m 0 min 0 min 0 W/m 18,8 km/h (3 Bft)
22.11.2014 07:26 4,3 C 3,3 C 93 % 1017,9 hPa 0,0 l/m 0 min 0 min 0 W/m 20,9 km/h (4 Bft)
22.11.2014 07:28 4,3 C 3,3 C 93 % 1017,9 hPa 0,0 l/m 0 min 0 min 0 W/m 14,6 km/h (3 Bft)
22.11.2014 07:30 4,3 C 3,3 C 93 % 1017,9 hPa 0,0 l/m 0 min 0 min 0 W/m 18,8 km/h (3 Bft)
22.11.2014 07:32 4,3 C 3,3 C 93 % 1017,8 hPa 0,0 l/m 0 min 0 min 0 W/m 16,7 km/h (3 Bft)
22.11.2014 07:34 4,3 C 3,3 C 93 % 1017,8 hPa 0,0 l/m 0 min 0 min 0 W/m 18,8 km/h (3 Bft)
22.11.2014 07:36 4,3 C 3,3 C 93 % 1017,8 hPa 0,0 l/m 0 min 0 min 0 W/m 20,9 km/h (4 Bft)
22.11.2014 07:38 4,3 C 3,3 C 93 % 1017,8 hPa 0,0 l/m 0 min 0 min 0 W/m 14,6 km/h (3 Bft)
22.11.2014 07:40 4,3 C 3,3 C 93 % 1017,9 hPa 0,0 l/m 0 min 0 min 0 W/m 14,6 km/h (3 Bft)
22.11.2014 07:42 4,3 C 3,3 C 93 % 1017,8 hPa 0,0 l/m 0 min 0 min 0 W/m 18,8 km/h (3 Bft)
22.11.2014 07:44 4,3 C 3,3 C 93 % 1017,8 hPa 0,0 l/m 0 min 0 min 0 W/m 18,8 km/h (3 Bft)
22.11.2014 07:46 4,3 C 3,3 C 94 % 1017,8 hPa 0,0 l/m 0 min 0 min 0 W/m 16,7 km/h (3 Bft)
22.11.2014 07:48 4,3 C 3,3 C 94 % 1017,9 hPa 0,0 l/m 0 min 0 min 0 W/m 23,0 km/h (4 Bft)
22.11.2014 07:50 4,3 C 3,3 C 94 % 1017,9 hPa 0,0 l/m 0 min 0 min 0 W/m 20,9 km/h (4 Bft)
22.11.2014 07:52 4,3 C 3,3 C 94 % 1018,0 hPa 0,0 l/m 0 min 0 min 0 W/m 16,7 km/h (3 Bft)
22.11.2014 07:54 4,3 C 3,3 C 94 % 1018,0 hPa 0,0 l/m 0 min 0 min 0 W/m 16,7 km/h (3 Bft)
22.11.2014 07:56 4,3 C 3,3 C 94 % 1018,0 hPa 0,0 l/m 0 min 0 min 0 W/m 20,9 km/h (4 Bft)
22.11.2014 07:58 4,3 C 3,3 C 94 % 1018,0 hPa 0,0 l/m 0 min 0 min 0 W/m 23,0 km/h (4 Bft)
22.11.2014 08:00 4,3 C 3,3 C 94 % 1018,0 hPa 0,0 l/m 0 min 0 min 1 W/m 18,8 km/h (3 Bft)
22.11.2014 08:02 4,3 C 3,3 C 94 % 1018,0 hPa 0,0 l/m 0 min 0 min 5 W/m 20,9 km/h (4 Bft)
22.11.2014 08:04 4,3 C 3,3 C 94 % 1018,0 hPa 0,0 l/m 0 min 0 min 5 W/m 18,8 km/h (3 Bft)
22.11.2014 08:06 4,3 C 3,3 C 94 % 1018,1 hPa 0,0 l/m 0 min 0 min 5 W/m 16,7 km/h (3 Bft)
22.11.2014 08:08 4,3 C 3,3 C 94 % 1018,0 hPa 0,0 l/m 0 min 0 min 7 W/m 18,8 km/h (3 Bft)
22.11.2014 08:10 4,3 C 3,3 C 94 % 1017,9 hPa 0,0 l/m 0 min 0 min 7 W/m 18,8 km/h (3 Bft)
22.11.2014 08:12 4,3 C 3,3 C 94 % 1018,0 hPa 0,0 l/m 0 min 0 min 9 W/m 18,8 km/h (3 Bft)
22.11.2014 08:14 4,3 C 3,3 C 94 % 1018,0 hPa 0,0 l/m 0 min 0 min 10 W/m 20,9 km/h (4 Bft)
22.11.2014 08:16 4,3 C 3,3 C 94 % 1018,0 hPa 0,0 l/m 0 min 0 min 11 W/m 23,0 km/h (4 Bft)
22.11.2014 08:18 4,3 C 3,3 C 94 % 1017,9 hPa 0,0 l/m 0 min 0 min 12 W/m 23,0 km/h (4 Bft)
22.11.2014 08:20 4,3 C 3,3 C 94 % 1018,0 hPa 0,0 l/m 0 min 0 min 13 W/m 18,8 km/h (3 Bft)
22.11.2014 08:22 4,4 C 3,3 C 94 % 1018,0 hPa 0,0 l/m 0 min 0 min 14 W/m 16,7 km/h (3 Bft)
22.11.2014 08:24 4,4 C 3,3 C 94 % 1018,0 hPa 0,0 l/m 0 min 0 min 16 W/m 16,7 km/h (3 Bft)
22.11.2014 08:26 4,4 C 3,3 C 94 % 1018,0 hPa 0,0 l/m 0 min 0 min 16 W/m 20,9 km/h (4 Bft)
22.11.2014 08:28 4,4 C 3,3 C 94 % 1018,0 hPa 0,0 l/m 0 min 0 min 19 W/m 18,8 km/h (3 Bft)
22.11.2014 08:30 4,4 C 3,3 C 94 % 1018,0 hPa 0,0 l/m 0 min 0 min 20 W/m 18,8 km/h (3 Bft)
22.11.2014 08:32 4,4 C 3,3 C 94 % 1018,1 hPa 0,0 l/m 0 min 0 min 22 W/m 20,9 km/h (4 Bft)
22.11.2014 08:34 4,4 C 3,3 C 94 % 1018,0 hPa 0,0 l/m 0 min 0 min 26 W/m 23,0 km/h (4 Bft)
22.11.2014 08:36 4,4 C 3,3 C 94 % 1018,0 hPa 0,0 l/m 0 min 0 min 30 W/m 18,8 km/h (3 Bft)
22.11.2014 08:38 4,4 C 3,3 C 94 % 1018,1 hPa 0,0 l/m 0 min 0 min 32 W/m 20,9 km/h (4 Bft)
22.11.2014 08:40 4,4 C 3,3 C 94 % 1018,1 hPa 0,0 l/m 0 min 0 min 36 W/m 18,8 km/h (3 Bft)
22.11.2014 08:42 4,4 C 3,3 C 94 % 1018,1 hPa 0,0 l/m 0 min 0 min 36 W/m 18,8 km/h (3 Bft)
22.11.2014 08:44 4,5 C 3,3 C 94 % 1018,1 hPa 0,0 l/m 0 min 0 min 35 W/m 18,8 km/h (3 Bft)
22.11.2014 08:46 4,5 C 3,3 C 94 % 1018,1 hPa 0,0 l/m 0 min 0 min 39 W/m 18,8 km/h (3 Bft)
22.11.2014 08:48 4,5 C 3,3 C 94 % 1018,1 hPa 0,0 l/m 0 min 0 min 38 W/m 18,8 km/h (3 Bft)
22.11.2014 08:50 4,5 C 3,3 C 94 % 1018,2 hPa 0,0 l/m 0 min 0 min 40 W/m 16,7 km/h (3 Bft)
22.11.2014 08:52 4,6 C 3,3 C 94 % 1018,1 hPa 0,0 l/m 0 min 0 min 47 W/m 20,9 km/h (4 Bft)
22.11.2014 08:54 4,6 C 3,9 C 94 % 1018,1 hPa 0,0 l/m 0 min 0 min 49 W/m 16,7 km/h (3 Bft)
22.11.2014 08:56 4,6 C 3,9 C 94 % 1018,1 hPa 0,0 l/m 0 min 0 min 52 W/m 20,9 km/h (4 Bft)
22.11.2014 08:58 4,6 C 3,9 C 94 % 1018,1 hPa 0,0 l/m 0 min 0 min 52 W/m 18,8 km/h (3 Bft)
22.11.2014 09:00 4,6 C 3,9 C 94 % 1018,1 hPa 0,0 l/m 0 min 0 min 58 W/m 18,8 km/h (3 Bft)
22.11.2014 09:02 4,7 C 3,9 C 94 % 1018,1 hPa 0,0 l/m 2 min 0 min 63 W/m 18,8 km/h (3 Bft)
22.11.2014 09:04 4,7 C 3,9 C 94 % 1018,0 hPa 0,0 l/m 2 min 0 min 66 W/m 18,8 km/h (3 Bft)
22.11.2014 09:06 4,7 C 3,9 C 94 % 1018,0 hPa 0,0 l/m 2 min 0 min 74 W/m 12,6 km/h (3 Bft)
22.11.2014 09:08 4,7 C 3,9 C 94 % 1018,0 hPa 0,0 l/m 2 min 0 min 78 W/m 18,8 km/h (3 Bft)
22.11.2014 09:10 4,8 C 3,9 C 94 % 1018,0 hPa 0,0 l/m 2 min 0 min 77 W/m 14,6 km/h (3 Bft)
22.11.2014 09:12 4,8 C 3,9 C 94 % 1018,1 hPa 0,0 l/m 2 min 0 min 76 W/m 14,6 km/h (3 Bft)
22.11.2014 09:14 4,8 C 3,9 C 94 % 1018,1 hPa 0,0 l/m 2 min 0 min 85 W/m 14,6 km/h (3 Bft)
22.11.2014 09:16 4,8 C 3,9 C 94 % 1018,1 hPa 0,0 l/m 2 min 0 min 91 W/m 20,9 km/h (4 Bft)
22.11.2014 09:18 4,9 C 3,9 C 94 % 1018,1 hPa 0,0 l/m 2 min 0 min 94 W/m 18,8 km/h (3 Bft)
22.11.2014 09:20 4,9 C 4,4 C 94 % 1018,0 hPa 0,0 l/m 2 min 0 min 93 W/m 20,9 km/h (4 Bft)
22.11.2014 09:22 4,9 C 4,4 C 94 % 1017,9 hPa 0,0 l/m 2 min 0 min 86 W/m 18,8 km/h (3 Bft)
22.11.2014 09:24 5,0 C 4,4 C 94 % 1018,0 hPa 0,0 l/m 2 min 0 min 88 W/m 20,9 km/h (4 Bft)
22.11.2014 09:26 5,1 C 4,4 C 94 % 1018,0 hPa 0,0 l/m 2 min 0 min 91 W/m 16,7 km/h (3 Bft)
22.11.2014 09:28 5,1 C 4,4 C 94 % 1018,0 hPa 0,0 l/m 2 min 0 min 96 W/m 20,9 km/h (4 Bft)
22.11.2014 09:30 5,1 C 4,4 C 94 % 1018,0 hPa 0,0 l/m 2 min 0 min 97 W/m 18,8 km/h (3 Bft)
22.11.2014 09:32 5,1 C 4,4 C 94 % 1018,1 hPa 0,0 l/m 2 min 0 min 95 W/m 16,7 km/h (3 Bft)
22.11.2014 09:34 5,2 C 4,4 C 94 % 1018,0 hPa 0,0 l/m 2 min 0 min 97 W/m 20,9 km/h (4 Bft)
22.11.2014 09:36 5,2 C 4,4 C 94 % 1018,0 hPa 0,0 l/m 2 min 0 min 108 W/m 18,8 km/h (3 Bft)
22.11.2014 09:38 5,2 C 4,4 C 94 % 1018,0 hPa 0,0 l/m 2 min 0 min 114 W/m 18,8 km/h (3 Bft)
22.11.2014 09:40 5,2 C 4,4 C 93 % 1018,0 hPa 0,0 l/m 2 min 0 min 108 W/m 16,7 km/h (3 Bft)
22.11.2014 09:42 5,3 C 4,4 C 93 % 1018,1 hPa 0,0 l/m 2 min 0 min 116 W/m 16,7 km/h (3 Bft)
22.11.2014 09:44 5,3 C 4,4 C 94 % 1018,1 hPa 0,0 l/m 2 min 0 min 119 W/m 14,6 km/h (3 Bft)
22.11.2014 09:46 5,4 C 4,4 C 94 % 1018,1 hPa 0,0 l/m 2 min 0 min 122 W/m 14,6 km/h (3 Bft)
22.11.2014 09:48 5,4 C 4,4 C 94 % 1018,1 hPa 0,0 l/m 2 min 0 min 127 W/m 20,9 km/h (4 Bft)
22.11.2014 09:50 5,4 C 4,4 C 94 % 1018,0 hPa 0,0 l/m 2 min 0 min 129 W/m 16,7 km/h (3 Bft)
22.11.2014 09:52 5,5 C 4,4 C 93 % 1018,1 hPa 0,0 l/m 2 min 0 min 132 W/m 23,0 km/h (4 Bft)
22.11.2014 09:54 5,5 C 5,0 C 93 % 1018,1 hPa 0,0 l/m 2 min 0 min 131 W/m 23,0 km/h (4 Bft)
22.11.2014 09:56 5,6 C 5,0 C 93 % 1018,0 hPa 0,0 l/m 2 min 0 min 132 W/m 20,9 km/h (4 Bft)
22.11.2014 09:58 5,6 C 5,0 C 93 % 1018,1 hPa 0,0 l/m 2 min 0 min 137 W/m 12,6 km/h (3 Bft)
22.11.2014 10:00 5,7 C 5,0 C 93 % 1018,3 hPa 0,0 l/m 2 min 0 min 142 W/m 23,0 km/h (4 Bft)
22.11.2014 10:02 5,7 C 5,0 C 93 % 1018,2 hPa 0,0 l/m 2 min 0 min 144 W/m 12,6 km/h (3 Bft)
22.11.2014 10:04 5,7 C 5,0 C 93 % 1018,2 hPa 0,0 l/m 2 min 0 min 150 W/m 18,8 km/h (3 Bft)
22.11.2014 10:06 5,8 C 5,0 C 93 % 1018,2 hPa 0,0 l/m 2 min 0 min 151 W/m 25,1 km/h (4 Bft)
22.11.2014 10:08 5,8 C 5,0 C 93 % 1018,2 hPa 0,0 l/m 0 min 0 min 111 W/m 16,7 km/h (3 Bft)
22.11.2014 10:10 5,9 C 5,0 C 93 % 1018,3 hPa 0,0 l/m 0 min 0 min 98 W/m 18,8 km/h (3 Bft)
22.11.2014 10:12 5,9 C 5,0 C 93 % 1018,4 hPa 0,0 l/m 0 min 0 min 107 W/m 18,8 km/h (3 Bft)
22.11.2014 10:14 5,9 C 5,0 C 93 % 1018,4 hPa 0,0 l/m 2 min 0 min 138 W/m 18,8 km/h (3 Bft)
22.11.2014 10:16 6,0 C 5,0 C 93 % 1018,4 hPa 0,0 l/m 2 min 0 min 144 W/m 16,7 km/h (3 Bft)
22.11.2014 10:18 6,1 C 5,0 C 93 % 1018,4 hPa 0,0 l/m 2 min 0 min 143 W/m 14,6 km/h (3 Bft)
22.11.2014 10:20 6,1 C 5,6 C 93 % 1018,4 hPa 0,0 l/m 2 min 0 min 152 W/m 23,0 km/h (4 Bft)
22.11.2014 10:22 6,2 C 5,6 C 93 % 1018,4 hPa 0,0 l/m 2 min 0 min 159 W/m 25,1 km/h (4 Bft)
22.11.2014 10:24 6,2 C 5,6 C 93 % 1018,4 hPa 0,0 l/m 2 min 0 min 164 W/m 14,6 km/h (3 Bft)
22.11.2014 10:26 6,3 C 5,6 C 93 % 1018,4 hPa 0,0 l/m 2 min 0 min 170 W/m 16,7 km/h (3 Bft)
22.11.2014 10:28 6,3 C 5,6 C 93 % 1018,4 hPa 0,0 l/m 2 min 0 min 175 W/m 20,9 km/h (4 Bft)
22.11.2014 10:30 6,4 C 5,6 C 93 % 1018,3 hPa 0,0 l/m 2 min 0 min 179 W/m 16,7 km/h (3 Bft)
22.11.2014 10:32 6,4 C 5,6 C 92 % 1018,3 hPa 0,0 l/m 2 min 0 min 166 W/m 16,7 km/h (3 Bft)
22.11.2014 10:34 6,6 C 5,6 C 93 % 1018,3 hPa 0,0 l/m 2 min 0 min 163 W/m 18,8 km/h (3 Bft)
22.11.2014 10:36 6,6 C 5,6 C 92 % 1018,3 hPa 0,0 l/m 2 min 0 min 147 W/m 25,1 km/h (4 Bft)
22.11.2014 10:38 6,7 C 5,6 C 92 % 1018,3 hPa 0,0 l/m 0 min 0 min 143 W/m 20,9 km/h (4 Bft)
22.11.2014 10:40 6,7 C 5,6 C 92 % 1018,3 hPa 0,0 l/m 2 min 0 min 168 W/m 18,8 km/h (3 Bft)
22.11.2014 10:42 6,8 C 6,1 C 92 % 1018,4 hPa 0,0 l/m 2 min 0 min 208 W/m 14,6 km/h (3 Bft)
22.11.2014 10:44 6,9 C 6,1 C 92 % 1018,3 hPa 0,0 l/m 2 min 0 min 233 W/m 25,1 km/h (4 Bft)
22.11.2014 10:46 6,9 C 6,1 C 92 % 1018,3 hPa 0,0 l/m 2 min 0 min 232 W/m 20,9 km/h (4 Bft)
22.11.2014 10:48 7,1 C 6,1 C 92 % 1018,3 hPa 0,0 l/m 2 min 0 min 217 W/m 20,9 km/h (4 Bft)
22.11.2014 10:50 7,1 C 6,1 C 92 % 1018,3 hPa 0,0 l/m 2 min 0 min 162 W/m 25,1 km/h (4 Bft)
22.11.2014 10:52 7,2 C 6,1 C 91 % 1018,3 hPa 0,0 l/m 0 min 0 min 99 W/m 20,9 km/h (4 Bft)
22.11.2014 10:54 7,2 C 6,1 C 91 % 1018,3 hPa 0,0 l/m 0 min 0 min 100 W/m 23,0 km/h (4 Bft)
22.11.2014 10:56 7,3 C 6,1 C 91 % 1018,2 hPa 0,0 l/m 0 min 0 min 96 W/m 16,7 km/h (3 Bft)
22.11.2014 10:58 7,3 C 6,1 C 91 % 1018,3 hPa 0,0 l/m 0 min 0 min 86 W/m 20,9 km/h (4 Bft)
22.11.2014 11:00 7,3 C 6,1 C 90 % 1018,3 hPa 0,0 l/m 0 min 0 min 81 W/m 16,7 km/h (3 Bft)
22.11.2014 11:02 7,4 C 5,6 C 90 % 1018,4 hPa 0,0 l/m 0 min 0 min 70 W/m 25,1 km/h (4 Bft)
22.11.2014 11:04 7,4 C 5,6 C 90 % 1018,4 hPa 0,0 l/m 0 min 0 min 62 W/m 14,6 km/h (3 Bft)
22.11.2014 11:06 7,4 C 5,6 C 90 % 1018,4 hPa 0,0 l/m 0 min 0 min 60 W/m 14,6 km/h (3 Bft)
22.11.2014 11:08 7,4 C 5,6 C 89 % 1018,4 hPa 0,0 l/m 0 min 0 min 59 W/m 14,6 km/h (3 Bft)
22.11.2014 11:10 7,4 C 5,6 C 89 % 1018,4 hPa 0,0 l/m 0 min 0 min 57 W/m 12,6 km/h (3 Bft)
22.11.2014 11:12 7,3 C 5,6 C 89 % 1018,4 hPa 0,0 l/m 0 min 0 min 56 W/m 18,8 km/h (3 Bft)
22.11.2014 11:14 7,3 C 5,6 C 89 % 1018,3 hPa 0,0 l/m 0 min 0 min 56 W/m 20,9 km/h (4 Bft)
22.11.2014 11:16 7,3 C 5,6 C 89 % 1018,2 hPa 0,0 l/m 0 min 0 min 56 W/m 18,8 km/h (3 Bft)
22.11.2014 11:18 7,3 C 5,6 C 89 % 1018,2 hPa 0,0 l/m 0 min 0 min 56 W/m 20,9 km/h (4 Bft)
22.11.2014 11:20 7,3 C 5,6 C 89 % 1018,2 hPa 0,0 l/m 0 min 0 min 57 W/m 18,8 km/h (3 Bft)
22.11.2014 11:22 7,3 C 5,6 C 89 % 1018,2 hPa 0,0 l/m 0 min 0 min 58 W/m 20,9 km/h (4 Bft)
22.11.2014 11:24 7,3 C 5,6 C 89 % 1018,1 hPa 0,0 l/m 0 min 0 min 60 W/m 16,7 km/h (3 Bft)
22.11.2014 11:26 7,3 C 5,6 C 89 % 1018,2 hPa 0,0 l/m 0 min 0 min 60 W/m 16,7 km/h (3 Bft)
22.11.2014 11:28 7,3 C 5,6 C 89 % 1018,2 hPa 0,0 l/m 0 min 0 min 62 W/m 14,6 km/h (3 Bft)
22.11.2014 11:30 7,3 C 5,6 C 89 % 1018,2 hPa 0,0 l/m 0 min 0 min 67 W/m 16,7 km/h (3 Bft)
22.11.2014 11:32 7,3 C 5,6 C 90 % 1018,1 hPa 0,0 l/m 0 min 0 min 85 W/m 14,6 km/h (3 Bft)
22.11.2014 11:34 7,3 C 5,6 C 90 % 1018,0 hPa 0,0 l/m 0 min 0 min 137 W/m 14,6 km/h (3 Bft)
22.11.2014 11:36 7,3 C 6,1 C 90 % 1018,1 hPa 0,0 l/m 2 min 0 min 206 W/m 14,6 km/h (3 Bft)
22.11.2014 11:38 7,3 C 6,1 C 90 % 1018,0 hPa 0,0 l/m 2 min 0 min 245 W/m 14,6 km/h (3 Bft)
22.11.2014 11:40 7,4 C 6,7 C 90 % 1018,1 hPa 0,0 l/m 2 min 0 min 255 W/m 16,7 km/h (3 Bft)
22.11.2014 11:42 7,5 C 6,7 C 90 % 1018,1 hPa 0,0 l/m 2 min 0 min 244 W/m 18,8 km/h (3 Bft)
22.11.2014 11:44 7,6 C 6,7 C 90 % 1018,2 hPa 0,0 l/m 2 min 0 min 247 W/m 12,6 km/h (3 Bft)
22.11.2014 11:46 7,7 C 6,7 C 91 % 1018,2 hPa 0,0 l/m 2 min 0 min 249 W/m 16,7 km/h (3 Bft)
22.11.2014 11:48 7,8 C 7,2 C 91 % 1018,1 hPa 0,0 l/m 2 min 0 min 245 W/m 14,6 km/h (3 Bft)
22.11.2014 11:50 7,9 C 7,2 C 91 % 1018,1 hPa 0,0 l/m 2 min 0 min 245 W/m 14,6 km/h (3 Bft)
22.11.2014 11:52 7,9 C 7,2 C 91 % 1018,2 hPa 0,0 l/m 2 min 0 min 256 W/m 23,0 km/h (4 Bft)
22.11.2014 11:54 8,1 C 7,2 C 91 % 1018,2 hPa 0,0 l/m 2 min 0 min 252 W/m 25,1 km/h (4 Bft)
22.11.2014 11:56 8,2 C 7,8 C 91 % 1018,0 hPa 0,0 l/m 2 min 0 min 245 W/m 18,8 km/h (3 Bft)
22.11.2014 11:58 8,3 C 7,8 C 91 % 1018,0 hPa 0,0 l/m 2 min 0 min 248 W/m 25,1 km/h (4 Bft)
22.11.2014 12:00 8,4 C 7,8 C 91 % 1018,0 hPa 0,0 l/m 2 min 0 min 252 W/m 18,8 km/h (3 Bft)
22.11.2014 12:02 8,6 C 7,8 C 91 % 1018,0 hPa 0,0 l/m 2 min 0 min 255 W/m 12,6 km/h (3 Bft)
22.11.2014 12:05 8,7 C 7,8 C 90 % 1018,0 hPa 0,0 l/m 2 min 0 min 270 W/m 18,8 km/h (3 Bft)
22.11.2014 12:06 8,8 C 7,8 C 90 % 1018,0 hPa 0,0 l/m 1 min 0 min 282 W/m 20,9 km/h (4 Bft)
22.11.2014 12:08 8,9 C 7,8 C 90 % 1017,9 hPa 0,0 l/m 2 min 0 min 280 W/m 20,9 km/h (4 Bft)
22.11.2014 12:10 9,0 C 7,8 C 90 % 1018,0 hPa 0,0 l/m 2 min 0 min 280 W/m 16,7 km/h (3 Bft)
22.11.2014 12:12 9,2 C 7,8 C 90 % 1018,0 hPa 0,0 l/m 2 min 0 min 278 W/m 23,0 km/h (4 Bft)
22.11.2014 12:14 9,3 C 8,3 C 89 % 1018,0 hPa 0,0 l/m 2 min 0 min 283 W/m 25,1 km/h (4 Bft)
22.11.2014 12:16 9,4 C 8,3 C 89 % 1017,9 hPa 0,0 l/m 2 min 0 min 285 W/m 23,0 km/h (4 Bft)
22.11.2014 12:18 9,4 C 8,3 C 89 % 1017,9 hPa 0,0 l/m 2 min 0 min 285 W/m 20,9 km/h (4 Bft)
22.11.2014 12:20 9,6 C 8,3 C 88 % 1017,9 hPa 0,0 l/m 2 min 0 min 288 W/m 20,9 km/h (4 Bft)
22.11.2014 12:22 9,7 C 8,3 C 88 % 1017,9 hPa 0,0 l/m 2 min 0 min 280 W/m 31,4 km/h (5 Bft)
22.11.2014 12:24 9,7 C 8,3 C 88 % 1018,0 hPa 0,0 l/m 2 min 0 min 281 W/m 18,8 km/h (3 Bft)
22.11.2014 12:26 9,8 C 8,3 C 88 % 1018,0 hPa 0,0 l/m 2 min 0 min 280 W/m 20,9 km/h (4 Bft)
22.11.2014 12:28 9,9 C 8,3 C 87 % 1018,0 hPa 0,0 l/m 2 min 0 min 279 W/m 23,0 km/h (4 Bft)
22.11.2014 12:30 9,9 C 8,3 C 87 % 1018,0 hPa 0,0 l/m 2 min 0 min 283 W/m 25,1 km/h (4 Bft)
22.11.2014 12:32 10,1 C 8,3 C 87 % 1018,1 hPa 0,0 l/m 2 min 0 min 243 W/m 25,1 km/h (4 Bft)
22.11.2014 12:34 10,1 C 8,3 C 87 % 1018,1 hPa 0,0 l/m 2 min 0 min 205 W/m 23,0 km/h (4 Bft)
22.11.2014 12:36 10,2 C 8,3 C 86 % 1018,2 hPa 0,0 l/m 0 min 0 min 166 W/m 25,1 km/h (4 Bft)
22.11.2014 12:38 10,2 C 8,3 C 86 % 1018,1 hPa 0,0 l/m 0 min 0 min 106 W/m 25,1 km/h (4 Bft)
22.11.2014 12:40 10,2 C 8,3 C 86 % 1018,1 hPa 0,0 l/m 0 min 0 min 125 W/m 18,8 km/h (3 Bft)
22.11.2014 12:42 10,2 C 7,8 C 86 % 1018,0 hPa 0,0 l/m 0 min 0 min 84 W/m 16,7 km/h (3 Bft)
22.11.2014 12:44 10,2 C 7,8 C 85 % 1018,1 hPa 0,0 l/m 0 min 0 min 68 W/m 18,8 km/h (3 Bft)
22.11.2014 12:46 10,2 C 7,8 C 85 % 1018,1 hPa 0,0 l/m 0 min 0 min 82 W/m 14,6 km/h (3 Bft)
22.11.2014 12:48 10,2 C 7,8 C 85 % 1018,1 hPa 0,0 l/m 0 min 0 min 68 W/m 20,9 km/h (4 Bft)
22.11.2014 12:50 10,1 C 7,8 C 85 % 1018,0 hPa 0,0 l/m 0 min 0 min 64 W/m 14,6 km/h (3 Bft)
22.11.2014 12:52 10,1 C 7,8 C 85 % 1018,0 hPa 0,0 l/m 0 min 0 min 89 W/m 16,7 km/h (3 Bft)
22.11.2014 12:54 10,1 C 7,8 C 85 % 1017,9 hPa 0,0 l/m 0 min 0 min 61 W/m 12,6 km/h (3 Bft)
22.11.2014 12:56 10,0 C 7,8 C 85 % 1017,9 hPa 0,0 l/m 0 min 0 min 57 W/m 12,6 km/h (3 Bft)
22.11.2014 12:58 10,0 C 7,8 C 86 % 1017,9 hPa 0,0 l/m 0 min 0 min 64 W/m 14,6 km/h (3 Bft)
22.11.2014 13:00 9,9 C 7,8 C 86 % 1017,9 hPa 0,0 l/m 0 min 0 min 166 W/m 16,7 km/h (3 Bft)
22.11.2014 13:02 9,9 C 7,8 C 86 % 1017,9 hPa 0,0 l/m 2 min 0 min 251 W/m 16,7 km/h (3 Bft)
22.11.2014 13:04 9,9 C 7,8 C 86 % 1017,9 hPa 0,0 l/m 2 min 0 min 231 W/m 16,7 km/h (3 Bft)
22.11.2014 13:06 9,9 C 8,3 C 86 % 1017,9 hPa 0,0 l/m 2 min 0 min 223 W/m 16,7 km/h (3 Bft)
22.11.2014 13:08 9,9 C 8,3 C 87 % 1017,9 hPa 0,0 l/m 0 min 0 min 129 W/m 18,8 km/h (3 Bft)
22.11.2014 13:10 10,0 C 7,8 C 87 % 1017,8 hPa 0,0 l/m 0 min 0 min 65 W/m 16,7 km/h (3 Bft)
22.11.2014 13:12 10,0 C 7,8 C 87 % 1017,9 hPa 0,0 l/m 0 min 0 min 59 W/m 18,8 km/h (3 Bft)
22.11.2014 13:14 10,0 C 7,8 C 87 % 1017,8 hPa 0,0 l/m 0 min 0 min 60 W/m 18,8 km/h (3 Bft)
22.11.2014 13:16 9,9 C 7,8 C 87 % 1017,8 hPa 0,0 l/m 0 min 0 min 67 W/m 16,7 km/h (3 Bft)
22.11.2014 13:18 9,9 C 7,8 C 87 % 1017,8 hPa 0,0 l/m 0 min 0 min 95 W/m 18,8 km/h (3 Bft)
22.11.2014 13:20 9,9 C 7,8 C 87 % 1017,8 hPa 0,0 l/m 0 min 0 min 120 W/m 18,8 km/h (3 Bft)
22.11.2014 13:22 9,9 C 7,8 C 87 % 1017,8 hPa 0,0 l/m 0 min 0 min 83 W/m 14,6 km/h (3 Bft)
22.11.2014 13:24 9,9 C 7,8 C 87 % 1017,9 hPa 0,0 l/m 0 min 0 min 76 W/m 16,7 km/h (3 Bft)
22.11.2014 13:26 9,9 C 7,8 C 87 % 1017,9 hPa 0,0 l/m 0 min 0 min 150 W/m 16,7 km/h (3 Bft)
22.11.2014 13:28 9,9 C 8,3 C 87 % 1017,9 hPa 0,0 l/m 2 min 0 min 240 W/m 18,8 km/h (3 Bft)
22.11.2014 13:30 9,9 C 8,3 C 87 % 1017,9 hPa 0,0 l/m 2 min 0 min 260 W/m 16,7 km/h (3 Bft)
22.11.2014 13:32 9,9 C 8,3 C 88 % 1017,9 hPa 0,0 l/m 2 min 0 min 262 W/m 20,9 km/h (4 Bft)
22.11.2014 13:34 10,0 C 8,9 C 88 % 1017,8 hPa 0,0 l/m 2 min 0 min 258 W/m 18,8 km/h (3 Bft)
22.11.2014 13:36 10,1 C 8,9 C 88 % 1017,7 hPa 0,0 l/m 2 min 0 min 252 W/m 16,7 km/h (3 Bft)
22.11.2014 13:38 10,2 C 8,9 C 88 % 1017,7 hPa 0,0 l/m 2 min 0 min 245 W/m 25,1 km/h (4 Bft)
22.11.2014 13:40 10,2 C 8,9 C 88 % 1017,7 hPa 0,0 l/m 2 min 0 min 239 W/m 25,1 km/h (4 Bft)
22.11.2014 13:42 10,3 C 8,9 C 88 % 1017,7 hPa 0,0 l/m 2 min 0 min 234 W/m 20,9 km/h (4 Bft)
22.11.2014 13:44 10,4 C 8,9 C 88 % 1017,7 hPa 0,0 l/m 2 min 0 min 228 W/m 20,9 km/h (4 Bft)
22.11.2014 13:46 10,4 C 8,9 C 88 % 1017,7 hPa 0,0 l/m 2 min 0 min 224 W/m 14,6 km/h (3 Bft)
22.11.2014 13:48 10,5 C 8,9 C 87 % 1017,7 hPa 0,0 l/m 2 min 0 min 220 W/m 20,9 km/h (4 Bft)
22.11.2014 13:50 10,6 C 8,9 C 87 % 1017,7 hPa 0,0 l/m 2 min 0 min 216 W/m 18,8 km/h (3 Bft)
22.11.2014 13:52 10,7 C 8,9 C 87 % 1017,6 hPa 0,0 l/m 2 min 0 min 211 W/m 16,7 km/h (3 Bft)
22.11.2014 13:54 10,7 C 8,9 C 87 % 1017,6 hPa 0,0 l/m 2 min 0 min 206 W/m 16,7 km/h (3 Bft)
22.11.2014 13:56 10,8 C 8,9 C 87 % 1017,6 hPa 0,0 l/m 2 min 0 min 203 W/m 25,1 km/h (4 Bft)
22.11.2014 13:58 10,9 C 8,9 C 87 % 1017,7 hPa 0,0 l/m 2 min 0 min 200 W/m 27,2 km/h (4 Bft)
22.11.2014 14:00 10,9 C 8,9 C 86 % 1017,6 hPa 0,0 l/m 2 min 0 min 197 W/m 27,2 km/h (4 Bft)
22.11.2014 14:02 10,9 C 8,9 C 86 % 1017,7 hPa 0,0 l/m 2 min 0 min 194 W/m 20,9 km/h (4 Bft)
22.11.2014 14:04 11,0 C 8,9 C 86 % 1017,7 hPa 0,0 l/m 2 min 0 min 191 W/m 18,8 km/h (3 Bft)
22.11.2014 14:06 11,1 C 8,9 C 86 % 1017,7 hPa 0,0 l/m 2 min 0 min 188 W/m 23,0 km/h (4 Bft)
22.11.2014 14:08 11,1 C 8,9 C 86 % 1017,7 hPa 0,0 l/m 2 min 0 min 185 W/m 20,9 km/h (4 Bft)
22.11.2014 14:10 11,1 C 9,4 C 86 % 1017,6 hPa 0,0 l/m 2 min 0 min 182 W/m 20,9 km/h (4 Bft)
22.11.2014 14:12 11,1 C 9,4 C 86 % 1017,5 hPa 0,0 l/m 2 min 0 min 177 W/m 18,8 km/h (3 Bft)
22.11.2014 14:14 11,2 C 9,4 C 86 % 1017,5 hPa 0,0 l/m 2 min 0 min 175 W/m 20,9 km/h (4 Bft)
22.11.2014 14:16 11,2 C 9,4 C 85 % 1017,6 hPa 0,0 l/m 2 min 0 min 172 W/m 27,2 km/h (4 Bft)
22.11.2014 14:18 11,2 C 9,4 C 85 % 1017,6 hPa 0,0 l/m 2 min 0 min 169 W/m 20,9 km/h (4 Bft)
22.11.2014 14:20 11,2 C 9,4 C 85 % 1017,6 hPa 0,0 l/m 2 min 0 min 165 W/m 18,8 km/h (3 Bft)
22.11.2014 14:22 11,2 C 9,4 C 85 % 1017,6 hPa 0,0 l/m 2 min 0 min 162 W/m 16,7 km/h (3 Bft)
22.11.2014 14:24 11,3 C 9,4 C 85 % 1017,5 hPa 0,0 l/m 2 min 0 min 159 W/m 14,6 km/h (3 Bft)
22.11.2014 14:26 11,3 C 9,4 C 85 % 1017,5 hPa 0,0 l/m 2 min 0 min 155 W/m 16,7 km/h (3 Bft)
22.11.2014 14:28 11,3 C 9,4 C 85 % 1017,5 hPa 0,0 l/m 2 min 0 min 152 W/m 20,9 km/h (4 Bft)
22.11.2014 14:30 11,3 C 9,4 C 85 % 1017,5 hPa 0,0 l/m 2 min 0 min 149 W/m 20,9 km/h (4 Bft)
22.11.2014 14:32 11,3 C 8,9 C 85 % 1017,5 hPa 0,0 l/m 2 min 0 min 145 W/m 20,9 km/h (4 Bft)
22.11.2014 14:34 11,3 C 8,9 C 85 % 1017,5 hPa 0,0 l/m 2 min 0 min 142 W/m 16,7 km/h (3 Bft)
22.11.2014 14:36 11,3 C 8,9 C 85 % 1017,6 hPa 0,0 l/m 2 min 0 min 139 W/m 16,7 km/h (3 Bft)
22.11.2014 14:38 11,3 C 8,9 C 85 % 1017,6 hPa 0,0 l/m 2 min 0 min 134 W/m 23,0 km/h (4 Bft)
22.11.2014 14:40 11,3 C 8,9 C 85 % 1017,5 hPa 0,0 l/m 2 min 0 min 132 W/m 23,0 km/h (4 Bft)
22.11.2014 14:42 11,3 C 8,9 C 85 % 1017,5 hPa 0,0 l/m 2 min 0 min 128 W/m 23,0 km/h (4 Bft)
22.11.2014 14:44 11,3 C 8,9 C 85 % 1017,5 hPa 0,0 l/m 2 min 0 min 125 W/m 18,8 km/h (3 Bft)
22.11.2014 14:46 11,3 C 8,9 C 85 % 1017,5 hPa 0,0 l/m 2 min 0 min 122 W/m 23,0 km/h (4 Bft)
22.11.2014 14:48 11,3 C 8,9 C 85 % 1017,5 hPa 0,0 l/m 2 min 0 min 118 W/m 12,6 km/h (3 Bft)
22.11.2014 14:50 11,3 C 8,9 C 85 % 1017,5 hPa 0,0 l/m 2 min 0 min 113 W/m 16,7 km/h (3 Bft)
22.11.2014 14:52 11,2 C 8,9 C 85 % 1017,5 hPa 0,0 l/m 2 min 0 min 109 W/m 23,0 km/h (4 Bft)
22.11.2014 14:54 11,2 C 8,9 C 85 % 1017,5 hPa 0,0 l/m 0 min 0 min 98 W/m 18,8 km/h (3 Bft)
22.11.2014 14:56 11,2 C 8,9 C 85 % 1017,5 hPa 0,0 l/m 0 min 0 min 97 W/m 14,6 km/h (3 Bft)
22.11.2014 14:58 11,2 C 8,9 C 86 % 1017,5 hPa 0,0 l/m 0 min 0 min 95 W/m 16,7 km/h (3 Bft)
22.11.2014 15:00 11,1 C 8,9 C 86 % 1017,4 hPa 0,0 l/m 0 min 0 min 92 W/m 14,6 km/h (3 Bft)
22.11.2014 15:02 11,1 C 8,9 C 86 % 1017,4 hPa 0,0 l/m 0 min 0 min 91 W/m 14,6 km/h (3 Bft)
22.11.2014 15:04 11,1 C 8,9 C 86 % 1017,4 hPa 0,0 l/m 0 min 0 min 91 W/m 18,8 km/h (3 Bft)
22.11.2014 15:06 11,0 C 8,9 C 86 % 1017,5 hPa 0,0 l/m 0 min 0 min 86 W/m 18,8 km/h (3 Bft)
22.11.2014 15:08 10,9 C 8,9 C 86 % 1017,5 hPa 0,0 l/m 0 min 0 min 81 W/m 20,9 km/h (4 Bft)
22.11.2014 15:10 10,9 C 8,9 C 86 % 1017,5 hPa 0,0 l/m 0 min 0 min 77 W/m 14,6 km/h (3 Bft)
22.11.2014 15:12 10,9 C 8,9 C 86 % 1017,5 hPa 0,0 l/m 0 min 0 min 73 W/m 18,8 km/h (3 Bft)
22.11.2014 15:14 10,9 C 8,9 C 86 % 1017,4 hPa 0,0 l/m 0 min 0 min 71 W/m 14,6 km/h (3 Bft)
22.11.2014 15:16 10,9 C 8,9 C 86 % 1017,4 hPa 0,0 l/m 0 min 0 min 69 W/m 18,8 km/h (3 Bft)
22.11.2014 15:18 10,9 C 8,9 C 87 % 1017,4 hPa 0,0 l/m 0 min 0 min 65 W/m 12,6 km/h (3 Bft)
22.11.2014 15:20 10,9 C 8,9 C 87 % 1017,5 hPa 0,0 l/m 0 min 0 min 60 W/m 10,5 km/h (2 Bft)
22.11.2014 15:22 10,8 C 8,9 C 87 % 1017,5 hPa 0,0 l/m 0 min 0 min 56 W/m 18,8 km/h (3 Bft)
22.11.2014 15:24 10,8 C 8,9 C 87 % 1017,4 hPa 0,0 l/m 0 min 0 min 54 W/m 14,6 km/h (3 Bft)
22.11.2014 15:26 10,8 C 8,9 C 87 % 1017,4 hPa 0,0 l/m 0 min 0 min 51 W/m 16,7 km/h (3 Bft)
22.11.2014 15:28 10,8 C 8,9 C 87 % 1017,4 hPa 0,0 l/m 0 min 0 min 51 W/m 14,6 km/h (3 Bft)
22.11.2014 15:30 10,8 C 8,9 C 87 % 1017,4 hPa 0,0 l/m 0 min 0 min 51 W/m 14,6 km/h (3 Bft)
22.11.2014 15:32 10,8 C 8,9 C 87 % 1017,4 hPa 0,0 l/m 0 min 0 min 48 W/m 16,7 km/h (3 Bft)
22.11.2014 15:34 10,7 C 8,9 C 87 % 1017,3 hPa 0,0 l/m 0 min 0 min 47 W/m 16,7 km/h (3 Bft)
22.11.2014 15:36 10,7 C 8,9 C 87 % 1017,3 hPa 0,0 l/m 0 min 0 min 40 W/m 16,7 km/h (3 Bft)
22.11.2014 15:38 10,7 C 8,9 C 87 % 1017,3 hPa 0,0 l/m 0 min 0 min 37 W/m 18,8 km/h (3 Bft)
22.11.2014 15:40 10,7 C 8,9 C 87 % 1017,3 hPa 0,0 l/m 0 min 0 min 37 W/m 16,7 km/h (3 Bft)
22.11.2014 15:42 10,7 C 8,9 C 87 % 1017,3 hPa 0,0 l/m 0 min 0 min 35 W/m 16,7 km/h (3 Bft)
22.11.2014 15:44 10,7 C 8,9 C 87 % 1017,4 hPa 0,0 l/m 0 min 0 min 33 W/m 18,8 km/h (3 Bft)
22.11.2014 15:46 10,7 C 8,9 C 87 % 1017,3 hPa 0,0 l/m 0 min 0 min 33 W/m 14,6 km/h (3 Bft)
22.11.2014 15:48 10,7 C 8,9 C 87 % 1017,3 hPa 0,0 l/m 0 min 0 min 32 W/m 16,7 km/h (3 Bft)
22.11.2014 15:50 10,6 C 8,3 C 88 % 1017,3 hPa 0,0 l/m 0 min 0 min 32 W/m 12,6 km/h (3 Bft)
22.11.2014 15:52 10,6 C 8,3 C 88 % 1017,3 hPa 0,0 l/m 0 min 0 min 30 W/m 14,6 km/h (3 Bft)
22.11.2014 15:54 10,6 C 8,3 C 88 % 1017,3 hPa 0,0 l/m 0 min 0 min 28 W/m 20,9 km/h (4 Bft)
22.11.2014 15:56 10,6 C 8,3 C 88 % 1017,3 hPa 0,0 l/m 0 min 0 min 28 W/m 10,5 km/h (2 Bft)
22.11.2014 15:58 10,6 C 8,3 C 88 % 1017,3 hPa 0,0 l/m 0 min 0 min 28 W/m 16,7 km/h (3 Bft)
22.11.2014 16:00 10,6 C 8,3 C 88 % 1017,4 hPa 0,0 l/m 0 min 0 min 28 W/m 12,6 km/h (3 Bft)
22.11.2014 16:02 10,5 C 8,3 C 88 % 1017,3 hPa 0,0 l/m 0 min 0 min 26 W/m 10,5 km/h (2 Bft)
22.11.2014 16:04 10,5 C 8,3 C 88 % 1017,4 hPa 0,0 l/m 0 min 0 min 23 W/m 10,5 km/h (2 Bft)
22.11.2014 16:06 10,5 C 8,3 C 88 % 1017,4 hPa 0,0 l/m 0 min 0 min 21 W/m 12,6 km/h (3 Bft)
22.11.2014 16:08 10,5 C 8,3 C 88 % 1017,5 hPa 0,0 l/m 0 min 0 min 21 W/m 14,6 km/h (3 Bft)
22.11.2014 16:10 10,4 C 8,3 C 88 % 1017,5 hPa 0,0 l/m 0 min 0 min 21 W/m 8,4 km/h (2 Bft)
22.11.2014 16:12 10,4 C 8,3 C 88 % 1017,4 hPa 0,0 l/m 0 min 0 min 21 W/m 14,6 km/h (3 Bft)
22.11.2014 16:14 10,4 C 8,3 C 88 % 1017,4 hPa 0,0 l/m 0 min 0 min 19 W/m 8,4 km/h (2 Bft)
22.11.2014 16:16 10,4 C 8,3 C 88 % 1017,5 hPa 0,0 l/m 0 min 0 min 18 W/m 16,7 km/h (3 Bft)
22.11.2014 16:18 10,4 C 8,3 C 88 % 1017,4 hPa 0,0 l/m 2 min 0 min 18 W/m 16,7 km/h (3 Bft)
22.11.2014 16:20 10,3 C 7,8 C 88 % 1017,5 hPa 0,0 l/m 2 min 0 min 14 W/m 16,7 km/h (3 Bft)
22.11.2014 16:22 10,3 C 8,3 C 88 % 1017,4 hPa 0,0 l/m 2 min 0 min 13 W/m 16,7 km/h (3 Bft)
22.11.2014 16:24 10,3 C 7,8 C 88 % 1017,4 hPa 0,0 l/m 0 min 0 min 12 W/m 12,6 km/h (3 Bft)
22.11.2014 16:26 10,3 C 7,8 C 88 % 1017,4 hPa 0,0 l/m 0 min 0 min 12 W/m 10,5 km/h (2 Bft)
22.11.2014 16:28 10,3 C 7,8 C 88 % 1017,4 hPa 0,0 l/m 0 min 0 min 11 W/m 10,5 km/h (2 Bft)
22.11.2014 16:30 10,2 C 7,8 C 88 % 1017,5 hPa 0,0 l/m 0 min 0 min 9 W/m 14,6 km/h (3 Bft)
22.11.2014 16:32 10,2 C 7,8 C 88 % 1017,5 hPa 0,0 l/m 0 min 0 min 7 W/m 14,6 km/h (3 Bft)
22.11.2014 16:34 10,2 C 7,8 C 88 % 1017,5 hPa 0,0 l/m 0 min 0 min 7 W/m 8,4 km/h (2 Bft)
22.11.2014 16:36 10,1 C 7,8 C 88 % 1017,5 hPa 0,0 l/m 0 min 0 min 5 W/m 10,5 km/h (2 Bft)
22.11.2014 16:38 10,1 C 7,8 C 89 % 1017,6 hPa 0,0 l/m 0 min 0 min 5 W/m 10,5 km/h (2 Bft)
22.11.2014 16:40 10,1 C 7,8 C 89 % 1017,6 hPa 0,0 l/m 0 min 0 min 2 W/m 12,6 km/h (3 Bft)
22.11.2014 16:42 10,0 C 7,8 C 89 % 1017,6 hPa 0,0 l/m 0 min 0 min 0 W/m 14,6 km/h (3 Bft)
22.11.2014 16:44 10,0 C 7,8 C 89 % 1017,6 hPa 0,0 l/m 0 min 0 min 0 W/m 10,5 km/h (2 Bft)
22.11.2014 16:46 10,0 C 7,8 C 89 % 1017,6 hPa 0,0 l/m 0 min 0 min 0 W/m 14,6 km/h (3 Bft)
22.11.2014 16:48 9,9 C 7,8 C 89 % 1017,6 hPa 0,0 l/m 0 min 0 min 0 W/m 14,6 km/h (3 Bft)
22.11.2014 16:50 9,9 C 7,8 C 89 % 1017,6 hPa 0,0 l/m 0 min 0 min 0 W/m 10,5 km/h (2 Bft)
22.11.2014 16:52 9,9 C 7,8 C 89 % 1017,6 hPa 0,0 l/m 0 min 0 min 0 W/m 16,7 km/h (3 Bft)
22.11.2014 16:54 9,8 C 7,2 C 89 % 1017,6 hPa 0,0 l/m 0 min 0 min 0 W/m 16,7 km/h (3 Bft)
22.11.2014 16:56 9,8 C 7,2 C 89 % 1017,6 hPa 0,0 l/m 0 min 0 min 0 W/m 10,5 km/h (2 Bft)
22.11.2014 16:58 9,8 C 7,2 C 89 % 1017,6 hPa 0,0 l/m 0 min 0 min 0 W/m 10,5 km/h (2 Bft)
22.11.2014 17:00 9,8 C 7,8 C 89 % 1017,6 hPa 0,0 l/m 0 min 0 min 0 W/m 16,7 km/h (3 Bft)
22.11.2014 17:02 9,7 C 7,2 C 89 % 1017,5 hPa 0,0 l/m 0 min 0 min 0 W/m 16,7 km/h (3 Bft)
22.11.2014 17:04 9,7 C 7,2 C 89 % 1017,5 hPa 0,0 l/m 0 min 0 min 0 W/m 16,7 km/h (3 Bft)
22.11.2014 17:06 9,7 C 7,2 C 89 % 1017,5 hPa 0,0 l/m 0 min 0 min 0 W/m 14,6 km/h (3 Bft)
22.11.2014 17:08 9,7 C 7,2 C 89 % 1017,5 hPa 0,0 l/m 0 min 0 min 0 W/m 16,7 km/h (3 Bft)
22.11.2014 17:10 9,6 C 7,2 C 89 % 1017,5 hPa 0,0 l/m 0 min 0 min 0 W/m 12,6 km/h (3 Bft)
22.11.2014 17:12 9,6 C 7,2 C 90 % 1017,4 hPa 0,0 l/m 0 min 0 min 0 W/m 16,7 km/h (3 Bft)
22.11.2014 17:14 9,6 C 7,2 C 90 % 1017,4 hPa 0,0 l/m 0 min 0 min 0 W/m 14,6 km/h (3 Bft)
22.11.2014 17:16 9,6 C 7,2 C 90 % 1017,5 hPa 0,0 l/m 0 min 0 min 0 W/m 16,7 km/h (3 Bft)
22.11.2014 17:18 9,6 C 7,2 C 90 % 1017,5 hPa 0,0 l/m 0 min 0 min 0 W/m 16,7 km/h (3 Bft)
22.11.2014 17:20 9,5 C 7,2 C 90 % 1017,5 hPa 0,0 l/m 0 min 0 min 0 W/m 12,6 km/h (3 Bft)
22.11.2014 17:22 9,5 C 7,2 C 90 % 1017,5 hPa 0,0 l/m 0 min 0 min 0 W/m 12,6 km/h (3 Bft)
22.11.2014 17:24 9,5 C 7,2 C 90 % 1017,4 hPa 0,0 l/m 0 min 0 min 0 W/m 14,6 km/h (3 Bft)
22.11.2014 17:26 9,4 C 7,2 C 90 % 1017,5 hPa 0,0 l/m 0 min 0 min 0 W/m 18,8 km/h (3 Bft)
22.11.2014 17:28 9,4 C 7,2 C 90 % 1017,5 hPa 0,0 l/m 0 min 0 min 0 W/m 10,5 km/h (2 Bft)
22.11.2014 17:30 9,4 C 7,2 C 90 % 1017,5 hPa 0,0 l/m 0 min 0 min 0 W/m 14,6 km/h (3 Bft)
22.11.2014 17:32 9,4 C 7,2 C 90 % 1017,4 hPa 0,0 l/m 0 min 0 min 0 W/m 16,7 km/h (3 Bft)
22.11.2014 17:34 9,4 C 7,2 C 90 % 1017,4 hPa 0,0 l/m 0 min 0 min 0 W/m 14,6 km/h (3 Bft)
22.11.2014 17:36 9,3 C 7,2 C 90 % 1017,5 hPa 0,0 l/m 0 min 0 min 0 W/m 18,8 km/h (3 Bft)
22.11.2014 17:38 9,3 C 7,2 C 90 % 1017,4 hPa 0,0 l/m 0 min 0 min 0 W/m 16,7 km/h (3 Bft)
22.11.2014 17:40 9,3 C 7,2 C 90 % 1017,4 hPa 0,0 l/m 0 min 0 min 0 W/m 18,8 km/h (3 Bft)
22.11.2014 17:42 9,3 C 7,2 C 90 % 1017,4 hPa 0,0 l/m 0 min 0 min 0 W/m 20,9 km/h (4 Bft)
22.11.2014 17:44 9,2 C 7,2 C 90 % 1017,4 hPa 0,0 l/m 0 min 0 min 0 W/m 14,6 km/h (3 Bft)
22.11.2014 17:46 9,2 C 7,2 C 90 % 1017,4 hPa 0,0 l/m 0 min 0 min 0 W/m 14,6 km/h (3 Bft)
22.11.2014 17:48 9,2 C 7,2 C 91 % 1017,3 hPa 0,0 l/m 0 min 0 min 0 W/m 18,8 km/h (3 Bft)
22.11.2014 17:50 9,2 C 7,2 C 91 % 1017,4 hPa 0,0 l/m 0 min 0 min 0 W/m 14,6 km/h (3 Bft)
22.11.2014 17:52 9,2 C 7,2 C 91 % 1017,5 hPa 0,0 l/m 0 min 0 min 0 W/m 23,0 km/h (4 Bft)
22.11.2014 17:54 9,2 C 7,2 C 91 % 1017,5 hPa 0,0 l/m 0 min 0 min 0 W/m 10,5 km/h (2 Bft)
22.11.2014 17:56 9,2 C 7,2 C 91 % 1017,6 hPa 0,0 l/m 0 min 0 min 0 W/m 16,7 km/h (3 Bft)
22.11.2014 17:58 9,2 C 7,2 C 91 % 1017,6 hPa 0,0 l/m 0 min 0 min 0 W/m 14,6 km/h (3 Bft)
22.11.2014 18:00 9,2 C 7,2 C 91 % 1017,6 hPa 0,0 l/m 0 min 0 min 0 W/m 18,8 km/h (3 Bft)
22.11.2014 18:03 9,1 C 7,2 C 91 % 1017,7 hPa 0,0 l/m 0 min 0 min 0 W/m 12,6 km/h (3 Bft)
22.11.2014 18:04 9,1 C 7,2 C 91 % 1017,7 hPa 0,0 l/m 0 min 0 min 0 W/m 14,6 km/h (3 Bft)
22.11.2014 18:06 9,1 C 7,2 C 91 % 1017,7 hPa 0,0 l/m 0 min 0 min 0 W/m 12,6 km/h (3 Bft)
22.11.2014 18:08 9,1 C 7,2 C 91 % 1017,7 hPa 0,0 l/m 0 min 0 min 0 W/m 16,7 km/h (3 Bft)
22.11.2014 18:10 9,1 C 7,2 C 91 % 1017,7 hPa 0,0 l/m 0 min 0 min 0 W/m 12,6 km/h (3 Bft)
22.11.2014 18:12 9,1 C 7,2 C 91 % 1017,7 hPa 0,0 l/m 0 min 0 min 0 W/m 12,6 km/h (3 Bft)
22.11.2014 18:14 9,0 C 7,2 C 91 % 1017,7 hPa 0,0 l/m 0 min 0 min 0 W/m 12,6 km/h (3 Bft)
22.11.2014 18:16 9,0 C 7,2 C 91 % 1017,8 hPa 0,0 l/m 0 min 0 min 0 W/m 12,6 km/h (3 Bft)
22.11.2014 18:18 9,0 C 7,2 C 91 % 1017,7 hPa 0,0 l/m 0 min 0 min 0 W/m 14,6 km/h (3 Bft)
22.11.2014 18:20 8,9 C 7,2 C 91 % 1017,8 hPa 0,0 l/m 0 min 0 min 0 W/m 10,5 km/h (2 Bft)
22.11.2014 18:22 9,0 C 7,2 C 91 % 1017,8 hPa 0,0 l/m 0 min 0 min 0 W/m 12,6 km/h (3 Bft)
22.11.2014 18:24 8,9 C 7,2 C 91 % 1017,8 hPa 0,0 l/m 0 min 0 min 0 W/m 12,6 km/h (3 Bft)
22.11.2014 18:26 8,9 C 7,2 C 91 % 1017,9 hPa 0,0 l/m 0 min 0 min 0 W/m 8,4 km/h (2 Bft)
22.11.2014 18:28 8,9 C 7,2 C 91 % 1017,9 hPa 0,0 l/m 0 min 0 min 0 W/m 14,6 km/h (3 Bft)
22.11.2014 18:30 8,9 C 7,2 C 91 % 1017,9 hPa 0,0 l/m 0 min 0 min 0 W/m 14,6 km/h (3 Bft)
22.11.2014 18:32 8,9 C 7,2 C 91 % 1017,9 hPa 0,0 l/m 0 min 0 min 0 W/m 16,7 km/h (3 Bft)
22.11.2014 18:34 8,9 C 7,2 C 91 % 1017,9 hPa 0,0 l/m 0 min 0 min 0 W/m 14,6 km/h (3 Bft)
22.11.2014 18:36 8,9 C 7,2 C 91 % 1017,8 hPa 0,0 l/m 0 min 0 min 0 W/m 14,6 km/h (3 Bft)
22.11.2014 18:38 8,9 C 7,2 C 91 % 1017,8 hPa 0,0 l/m 0 min 0 min 0 W/m 14,6 km/h (3 Bft)
22.11.2014 18:40 8,9 C 7,2 C 91 % 1017,7 hPa 0,0 l/m 0 min 0 min 0 W/m 14,6 km/h (3 Bft)
22.11.2014 18:42 8,8 C 7,2 C 91 % 1017,7 hPa 0,0 l/m 0 min 0 min 0 W/m 12,6 km/h (3 Bft)
22.11.2014 18:44 8,8 C 7,2 C 91 % 1017,7 hPa 0,0 l/m 0 min 0 min 0 W/m 16,7 km/h (3 Bft)
22.11.2014 18:46 8,8 C 6,7 C 91 % 1017,7 hPa 0,0 l/m 0 min 0 min 0 W/m 14,6 km/h (3 Bft)
22.11.2014 18:48 8,8 C 6,7 C 91 % 1017,7 hPa 0,0 l/m 0 min 0 min 0 W/m 12,6 km/h (3 Bft)
22.11.2014 18:50 8,8 C 6,7 C 91 % 1017,8 hPa 0,0 l/m 0 min 0 min 0 W/m 14,6 km/h (3 Bft)
22.11.2014 18:52 8,8 C 6,7 C 91 % 1017,7 hPa 0,0 l/m 0 min 0 min 0 W/m 14,6 km/h (3 Bft)
22.11.2014 18:54 8,8 C 7,2 C 91 % 1017,7 hPa 0,0 l/m 0 min 0 min 0 W/m 16,7 km/h (3 Bft)
22.11.2014 18:56 8,7 C 6,7 C 91 % 1017,7 hPa 0,0 l/m 0 min 0 min 0 W/m 16,7 km/h (3 Bft)
22.11.2014 18:58 8,7 C 6,7 C 91 % 1017,7 hPa 0,0 l/m 0 min 0 min 0 W/m 14,6 km/h (3 Bft)
22.11.2014 19:00 8,7 C 6,7 C 91 % 1017,7 hPa 0,0 l/m 0 min 0 min 0 W/m 12,6 km/h (3 Bft)
22.11.2014 19:02 8,7 C 7,2 C 91 % 1017,6 hPa 0,0 l/m 0 min 0 min 0 W/m 12,6 km/h (3 Bft)
22.11.2014 19:04 8,7 C 7,2 C 91 % 1017,7 hPa 0,0 l/m 0 min 0 min 0 W/m 14,6 km/h (3 Bft)
22.11.2014 19:06 8,7 C 7,2 C 92 % 1017,6 hPa 0,0 l/m 0 min 0 min 0 W/m 16,7 km/h (3 Bft)
22.11.2014 19:08 8,7 C 7,2 C 92 % 1017,7 hPa 0,0 l/m 0 min 0 min 0 W/m 14,6 km/h (3 Bft)
22.11.2014 19:10 8,7 C 6,7 C 92 % 1017,7 hPa 0,0 l/m 0 min 0 min 0 W/m 20,9 km/h (4 Bft)
22.11.2014 19:12 8,7 C 6,7 C 92 % 1017,7 hPa 0,0 l/m 0 min 0 min 0 W/m 12,6 km/h (3 Bft)
22.11.2014 19:14 8,7 C 6,7 C 92 % 1017,7 hPa 0,0 l/m 0 min 0 min 0 W/m 10,5 km/h (2 Bft)
22.11.2014 19:16 8,7 C 6,7 C 92 % 1017,7 hPa 0,0 l/m 0 min 0 min 0 W/m 14,6 km/h (3 Bft)
22.11.2014 19:18 8,6 C 6,7 C 92 % 1017,7 hPa 0,0 l/m 0 min 0 min 0 W/m 14,6 km/h (3 Bft)
22.11.2014 19:20 8,6 C 6,7 C 92 % 1017,7 hPa 0,0 l/m 0 min 0 min 0 W/m 12,6 km/h (3 Bft)
22.11.2014 19:22 8,6 C 6,7 C 92 % 1017,7 hPa 0,0 l/m 0 min 0 min 0 W/m 14,6 km/h (3 Bft)
22.11.2014 19:24 8,6 C 6,7 C 92 % 1017,7 hPa 0,0 l/m 0 min 0 min 0 W/m 14,6 km/h (3 Bft)
22.11.2014 19:26 8,6 C 6,7 C 92 % 1017,7 hPa 0,0 l/m 0 min 0 min 0 W/m 14,6 km/h (3 Bft)
22.11.2014 19:28 8,6 C 6,7 C 92 % 1017,6 hPa 0,0 l/m 0 min 0 min 0 W/m 14,6 km/h (3 Bft)
22.11.2014 19:30 8,6 C 6,7 C 92 % 1017,7 hPa 0,0 l/m 0 min 0 min 0 W/m 16,7 km/h (3 Bft)
22.11.2014 19:32 8,6 C 6,7 C 92 % 1017,6 hPa 0,0 l/m 0 min 0 min 0 W/m 10,5 km/h (2 Bft)
22.11.2014 19:34 8,6 C 6,7 C 92 % 1017,6 hPa 0,0 l/m 0 min 0 min 0 W/m 12,6 km/h (3 Bft)
22.11.2014 19:36 8,6 C 6,7 C 92 % 1017,7 hPa 0,0 l/m 0 min 0 min 0 W/m 16,7 km/h (3 Bft)
22.11.2014 19:38 8,5 C 6,7 C 92 % 1017,7 hPa 0,0 l/m 0 min 0 min 0 W/m 18,8 km/h (3 Bft)
22.11.2014 19:40 8,5 C 6,7 C 92 % 1017,7 hPa 0,0 l/m 0 min 0 min 0 W/m 14,6 km/h (3 Bft)
22.11.2014 19:42 8,5 C 6,7 C 92 % 1017,7 hPa 0,0 l/m 0 min 0 min 0 W/m 14,6 km/h (3 Bft)
22.11.2014 19:44 8,5 C 6,7 C 92 % 1017,7 hPa 0,0 l/m 0 min 0 min 0 W/m 10,5 km/h (2 Bft)
22.11.2014 19:46 8,4 C 6,7 C 92 % 1017,7 hPa 0,0 l/m 0 min 0 min 0 W/m 10,5 km/h (2 Bft)
22.11.2014 19:48 8,5 C 6,7 C 92 % 1017,7 hPa 0,0 l/m 0 min 0 min 0 W/m 18,8 km/h (3 Bft)
22.11.2014 19:50 8,4 C 6,7 C 92 % 1017,7 hPa 0,0 l/m 0 min 0 min 0 W/m 14,6 km/h (3 Bft)
22.11.2014 19:52 8,4 C 6,7 C 92 % 1017,7 hPa 0,0 l/m 0 min 0 min 0 W/m 20,9 km/h (4 Bft)
22.11.2014 19:54 8,4 C 6,7 C 92 % 1017,6 hPa 0,0 l/m 0 min 0 min 0 W/m 25,1 km/h (4 Bft)
22.11.2014 19:56 8,4 C 6,7 C 92 % 1017,6 hPa 0,0 l/m 0 min 0 min 0 W/m 14,6 km/h (3 Bft)
22.11.2014 19:58 8,4 C 6,7 C 92 % 1017,7 hPa 0,0 l/m 0 min 0 min 0 W/m 16,7 km/h (3 Bft)
22.11.2014 20:00 8,4 C 6,7 C 92 % 1017,6 hPa 0,0 l/m 0 min 0 min 0 W/m 18,8 km/h (3 Bft)
22.11.2014 20:02 8,4 C 6,7 C 92 % 1017,6 hPa 0,0 l/m 0 min 0 min 0 W/m 16,7 km/h (3 Bft)
22.11.2014 20:04 8,4 C 6,7 C 92 % 1017,6 hPa 0,0 l/m 0 min 0 min 0 W/m 16,7 km/h (3 Bft)
22.11.2014 20:06 8,4 C 6,7 C 92 % 1017,6 hPa 0,0 l/m 0 min 0 min 0 W/m 14,6 km/h (3 Bft)
22.11.2014 20:08 8,4 C 6,7 C 92 % 1017,7 hPa 0,0 l/m 0 min 0 min 0 W/m 14,6 km/h (3 Bft)
22.11.2014 20:10 8,4 C 6,7 C 92 % 1017,7 hPa 0,0 l/m 0 min 0 min 0 W/m 18,8 km/h (3 Bft)
22.11.2014 20:12 8,4 C 6,7 C 92 % 1017,6 hPa 0,0 l/m 0 min 0 min 0 W/m 16,7 km/h (3 Bft)
22.11.2014 20:14 8,4 C 6,7 C 92 % 1017,6 hPa 0,0 l/m 0 min 0 min 0 W/m 18,8 km/h (3 Bft)
22.11.2014 20:16 8,4 C 6,7 C 92 % 1017,6 hPa 0,0 l/m 0 min 0 min 0 W/m 12,6 km/h (3 Bft)
22.11.2014 20:18 8,4 C 6,7 C 92 % 1017,7 hPa 0,0 l/m 0 min 0 min 0 W/m 16,7 km/h (3 Bft)
22.11.2014 20:20 8,4 C 6,7 C 92 % 1017,7 hPa 0,0 l/m 0 min 0 min 0 W/m 20,9 km/h (4 Bft)
22.11.2014 20:22 8,4 C 7,2 C 92 % 1017,7 hPa 0,0 l/m 0 min 0 min 0 W/m 25,1 km/h (4 Bft)
22.11.2014 20:24 8,4 C 7,2 C 92 % 1017,7 hPa 0,0 l/m 0 min 0 min 0 W/m 25,1 km/h (4 Bft)
22.11.2014 20:26 8,4 C 7,2 C 92 % 1017,7 hPa 0,0 l/m 0 min 0 min 0 W/m 18,8 km/h (3 Bft)
22.11.2014 20:28 8,4 C 7,2 C 92 % 1017,7 hPa 0,0 l/m 0 min 0 min 0 W/m 23,0 km/h (4 Bft)
22.11.2014 20:30 8,4 C 7,2 C 92 % 1017,7 hPa 0,0 l/m 0 min 0 min 0 W/m 20,9 km/h (4 Bft)
22.11.2014 20:32 8,4 C 7,2 C 92 % 1017,8 hPa 0,0 l/m 0 min 0 min 0 W/m 14,6 km/h (3 Bft)
22.11.2014 20:34 8,4 C 6,7 C 92 % 1017,8 hPa 0,0 l/m 0 min 0 min 0 W/m 14,6 km/h (3 Bft)
22.11.2014 20:36 8,4 C 6,7 C 92 % 1017,8 hPa 0,0 l/m 0 min 0 min 0 W/m 18,8 km/h (3 Bft)
22.11.2014 20:38 8,4 C 6,7 C 92 % 1017,8 hPa 0,0 l/m 0 min 0 min 0 W/m 14,6 km/h (3 Bft)
22.11.2014 20:40 8,4 C 6,7 C 92 % 1017,8 hPa 0,0 l/m 0 min 0 min 0 W/m 16,7 km/h (3 Bft)
22.11.2014 20:42 8,4 C 6,7 C 92 % 1017,7 hPa 0,0 l/m 0 min 0 min 0 W/m 20,9 km/h (4 Bft)
22.11.2014 20:44 8,4 C 7,2 C 92 % 1017,8 hPa 0,0 l/m 0 min 0 min 0 W/m 16,7 km/h (3 Bft)
22.11.2014 20:46 8,4 C 7,2 C 92 % 1017,7 hPa 0,0 l/m 0 min 0 min 0 W/m 20,9 km/h (4 Bft)
22.11.2014 20:48 8,4 C 7,2 C 92 % 1017,8 hPa 0,0 l/m 0 min 0 min 0 W/m 23,0 km/h (4 Bft)
22.11.2014 20:50 8,4 C 7,2 C 92 % 1017,8 hPa 0,0 l/m 0 min 0 min 0 W/m 20,9 km/h (4 Bft)
22.11.2014 20:52 8,4 C 7,2 C 92 % 1017,8 hPa 0,0 l/m 0 min 0 min 0 W/m 16,7 km/h (3 Bft)
22.11.2014 20:54 8,4 C 7,2 C 92 % 1017,7 hPa 0,0 l/m 0 min 0 min 0 W/m 20,9 km/h (4 Bft)
22.11.2014 20:56 8,4 C 7,2 C 92 % 1017,7 hPa 0,0 l/m 0 min 0 min 0 W/m 20,9 km/h (4 Bft)
22.11.2014 20:58 8,4 C 7,2 C 92 % 1017,8 hPa 0,0 l/m 0 min 0 min 0 W/m 14,6 km/h (3 Bft)
22.11.2014 21:00 8,4 C 7,2 C 92 % 1017,8 hPa 0,0 l/m 0 min 0 min 0 W/m 16,7 km/h (3 Bft)
22.11.2014 21:02 8,4 C 7,2 C 92 % 1017,8 hPa 0,0 l/m 0 min 0 min 0 W/m 25,1 km/h (4 Bft)
22.11.2014 21:04 8,4 C 7,2 C 92 % 1017,9 hPa 0,0 l/m 0 min 0 min 0 W/m 14,6 km/h (3 Bft)
22.11.2014 21:06 8,4 C 7,2 C 92 % 1017,9 hPa 0,0 l/m 0 min 0 min 0 W/m 16,7 km/h (3 Bft)
22.11.2014 21:08 8,4 C 7,2 C 92 % 1017,9 hPa 0,0 l/m 0 min 0 min 0 W/m 23,0 km/h (4 Bft)
22.11.2014 21:10 8,4 C 7,2 C 92 % 1017,9 hPa 0,0 l/m 0 min 0 min 0 W/m 20,9 km/h (4 Bft)
22.11.2014 21:12 8,4 C 7,2 C 92 % 1018,0 hPa 0,0 l/m 0 min 0 min 0 W/m 25,1 km/h (4 Bft)
22.11.2014 21:14 8,4 C 7,2 C 92 % 1018,0 hPa 0,0 l/m 0 min 0 min 0 W/m 14,6 km/h (3 Bft)
22.11.2014 21:16 8,4 C 7,2 C 92 % 1018,0 hPa 0,0 l/m 0 min 0 min 0 W/m 16,7 km/h (3 Bft)
22.11.2014 21:18 8,4 C 7,2 C 92 % 1018,0 hPa 0,0 l/m 0 min 0 min 0 W/m 16,7 km/h (3 Bft)
22.11.2014 21:20 8,4 C 7,2 C 92 % 1018,0 hPa 0,0 l/m 0 min 0 min 0 W/m 14,6 km/h (3 Bft)
22.11.2014 21:22 8,4 C 7,2 C 92 % 1018,0 hPa 0,0 l/m 0 min 0 min 0 W/m 16,7 km/h (3 Bft)
22.11.2014 21:24 8,4 C 7,2 C 92 % 1018,0 hPa 0,0 l/m 0 min 0 min 0 W/m 12,6 km/h (3 Bft)
22.11.2014 21:26 8,4 C 7,2 C 92 % 1018,0 hPa 0,0 l/m 0 min 0 min 0 W/m 14,6 km/h (3 Bft)
22.11.2014 21:28 8,4 C 7,2 C 92 % 1018,0 hPa 0,0 l/m 0 min 0 min 0 W/m 16,7 km/h (3 Bft)
22.11.2014 21:30 8,4 C 7,2 C 92 % 1018,0 hPa 0,0 l/m 0 min 0 min 0 W/m 12,6 km/h (3 Bft)
22.11.2014 21:32 8,4 C 7,2 C 92 % 1018,1 hPa 0,0 l/m 0 min 0 min 0 W/m 23,0 km/h (4 Bft)
22.11.2014 21:34 8,4 C 7,2 C 92 % 1018,0 hPa 0,0 l/m 0 min 0 min 0 W/m 14,6 km/h (3 Bft)
22.11.2014 21:36 8,4 C 7,2 C 92 % 1018,0 hPa 0,0 l/m 0 min 0 min 0 W/m 14,6 km/h (3 Bft)
22.11.2014 21:38 8,4 C 7,2 C 92 % 1018,0 hPa 0,0 l/m 0 min 0 min 0 W/m 14,6 km/h (3 Bft)
22.11.2014 21:40 8,4 C 7,2 C 92 % 1018,0 hPa 0,0 l/m 0 min 0 min 0 W/m 18,8 km/h (3 Bft)
22.11.2014 21:42 8,4 C 7,2 C 92 % 1018,2 hPa 0,0 l/m 0 min 0 min 0 W/m 14,6 km/h (3 Bft)
22.11.2014 21:44 8,4 C 7,2 C 92 % 1018,2 hPa 0,0 l/m 0 min 0 min 0 W/m 12,6 km/h (3 Bft)
22.11.2014 21:46 8,4 C 7,2 C 92 % 1018,1 hPa 0,0 l/m 0 min 0 min 0 W/m 14,6 km/h (3 Bft)
22.11.2014 21:48 8,4 C 7,2 C 92 % 1018,2 hPa 0,0 l/m 0 min 0 min 0 W/m 14,6 km/h (3 Bft)
22.11.2014 21:50 8,4 C 7,2 C 92 % 1018,2 hPa 0,0 l/m 0 min 0 min 0 W/m 10,5 km/h (2 Bft)
22.11.2014 21:52 8,4 C 7,2 C 92 % 1018,2 hPa 0,0 l/m 0 min 0 min 0 W/m 10,5 km/h (2 Bft)
22.11.2014 21:54 8,4 C 7,2 C 92 % 1018,3 hPa 0,0 l/m 0 min 0 min 0 W/m 14,6 km/h (3 Bft)
22.11.2014 21:56 8,4 C 7,2 C 92 % 1018,3 hPa 0,0 l/m 0 min 0 min 0 W/m 16,7 km/h (3 Bft)
22.11.2014 21:58 8,4 C 7,2 C 92 % 1018,3 hPa 0,0 l/m 0 min 0 min 0 W/m 14,6 km/h (3 Bft)
22.11.2014 22:00 8,4 C 7,2 C 92 % 1018,3 hPa 0,0 l/m 0 min 0 min 0 W/m 12,6 km/h (3 Bft)
22.11.2014 22:02 8,4 C 7,2 C 92 % 1018,2 hPa 0,0 l/m 0 min 0 min 0 W/m 18,8 km/h (3 Bft)
22.11.2014 22:04 8,4 C 7,2 C 92 % 1018,3 hPa 0,0 l/m 0 min 0 min 0 W/m 16,7 km/h (3 Bft)
22.11.2014 22:06 8,4 C 7,2 C 92 % 1018,2 hPa 0,0 l/m 0 min 0 min 0 W/m 16,7 km/h (3 Bft)
22.11.2014 22:08 8,4 C 7,2 C 92 % 1018,2 hPa 0,0 l/m 0 min 0 min 0 W/m 16,7 km/h (3 Bft)
22.11.2014 22:10 8,4 C 7,2 C 92 % 1018,2 hPa 0,0 l/m 0 min 0 min 0 W/m 16,7 km/h (3 Bft)
22.11.2014 22:12 8,4 C 7,2 C 92 % 1018,3 hPa 0,0 l/m 0 min 0 min 0 W/m 16,7 km/h (3 Bft)
22.11.2014 22:14 8,4 C 7,2 C 92 % 1018,2 hPa 0,0 l/m 0 min 0 min 0 W/m 16,7 km/h (3 Bft)
22.11.2014 22:16 8,4 C 7,2 C 92 % 1018,2 hPa 0,0 l/m 0 min 0 min 0 W/m 16,7 km/h (3 Bft)
22.11.2014 22:18 8,4 C 7,2 C 92 % 1018,3 hPa 0,0 l/m 0 min 0 min 0 W/m 16,7 km/h (3 Bft)
22.11.2014 22:20 8,4 C 7,2 C 92 % 1018,2 hPa 0,0 l/m 0 min 0 min 0 W/m 12,6 km/h (3 Bft)
22.11.2014 22:22 8,4 C 7,2 C 92 % 1018,2 hPa 0,0 l/m 0 min 0 min 0 W/m 12,6 km/h (3 Bft)
22.11.2014 22:24 8,4 C 7,2 C 92 % 1018,2 hPa 0,0 l/m 0 min 0 min 0 W/m 14,6 km/h (3 Bft)
22.11.2014 22:26 8,4 C 7,2 C 92 % 1018,2 hPa 0,0 l/m 0 min 0 min 0 W/m 14,6 km/h (3 Bft)
22.11.2014 22:28 8,4 C 7,2 C 92 % 1018,2 hPa 0,0 l/m 0 min 0 min 0 W/m 14,6 km/h (3 Bft)
22.11.2014 22:30 8,4 C 7,2 C 92 % 1018,3 hPa 0,0 l/m 0 min 0 min 0 W/m 18,8 km/h (3 Bft)
22.11.2014 22:32 8,4 C 7,2 C 92 % 1018,3 hPa 0,0 l/m 0 min 0 min 0 W/m 14,6 km/h (3 Bft)
22.11.2014 22:34 8,4 C 7,2 C 92 % 1018,4 hPa 0,0 l/m 0 min 0 min 0 W/m 20,9 km/h (4 Bft)
22.11.2014 22:36 8,4 C 7,2 C 92 % 1018,1 hPa 0,0 l/m 0 min 0 min 0 W/m 16,7 km/h (3 Bft)
22.11.2014 22:38 8,4 C 7,2 C 92 % 1018,1 hPa 0,0 l/m 0 min 0 min 0 W/m 20,9 km/h (4 Bft)
22.11.2014 22:40 8,4 C 7,2 C 92 % 1018,0 hPa 0,0 l/m 0 min 0 min 0 W/m 18,8 km/h (3 Bft)
22.11.2014 22:42 8,4 C 7,2 C 92 % 1018,0 hPa 0,0 l/m 0 min 0 min 0 W/m 16,7 km/h (3 Bft)
22.11.2014 22:44 8,4 C 7,2 C 92 % 1018,2 hPa 0,0 l/m 0 min 0 min 0 W/m 12,6 km/h (3 Bft)
22.11.2014 22:46 8,4 C 7,2 C 92 % 1018,2 hPa 0,0 l/m 0 min 0 min 0 W/m 16,7 km/h (3 Bft)
22.11.2014 22:48 8,4 C 7,2 C 92 % 1018,1 hPa 0,0 l/m 0 min 0 min 0 W/m 14,6 km/h (3 Bft)
22.11.2014 22:50 8,4 C 7,2 C 92 % 1018,1 hPa 0,0 l/m 0 min 0 min 0 W/m 18,8 km/h (3 Bft)
22.11.2014 22:52 8,4 C 7,2 C 92 % 1018,2 hPa 0,0 l/m 0 min 0 min 0 W/m 16,7 km/h (3 Bft)
22.11.2014 22:54 8,4 C 7,2 C 92 % 1018,3 hPa 0,0 l/m 0 min 0 min 0 W/m 14,6 km/h (3 Bft)
22.11.2014 22:56 8,4 C 7,2 C 93 % 1018,3 hPa 0,0 l/m 0 min 0 min 0 W/m 14,6 km/h (3 Bft)
22.11.2014 22:58 8,4 C 7,2 C 93 % 1018,5 hPa 0,0 l/m 0 min 0 min 0 W/m 14,6 km/h (3 Bft)
22.11.2014 23:00 8,4 C 7,2 C 93 % 1018,5 hPa 0,0 l/m 0 min 0 min 0 W/m 14,6 km/h (3 Bft)
22.11.2014 23:02 8,4 C 7,2 C 93 % 1018,5 hPa 0,0 l/m 0 min 0 min 0 W/m 16,7 km/h (3 Bft)
22.11.2014 23:04 8,4 C 7,2 C 93 % 1018,5 hPa 0,0 l/m 0 min 0 min 0 W/m 10,5 km/h (2 Bft)
22.11.2014 23:06 8,4 C 7,2 C 93 % 1018,4 hPa 0,0 l/m 0 min 0 min 0 W/m 12,6 km/h (3 Bft)
22.11.2014 23:08 8,4 C 7,2 C 93 % 1018,4 hPa 0,0 l/m 0 min 0 min 0 W/m 16,7 km/h (3 Bft)
22.11.2014 23:10 8,4 C 7,2 C 93 % 1018,5 hPa 0,0 l/m 0 min 0 min 0 W/m 18,8 km/h (3 Bft)
22.11.2014 23:12 8,4 C 7,2 C 93 % 1018,5 hPa 0,0 l/m 0 min 0 min 0 W/m 12,6 km/h (3 Bft)
22.11.2014 23:14 8,4 C 7,2 C 93 % 1018,4 hPa 0,0 l/m 0 min 0 min 0 W/m 12,6 km/h (3 Bft)
22.11.2014 23:16 8,4 C 6,7 C 93 % 1018,3 hPa 0,0 l/m 0 min 0 min 0 W/m 10,5 km/h (2 Bft)
22.11.2014 23:18 8,4 C 6,7 C 93 % 1018,5 hPa 0,0 l/m 0 min 0 min 0 W/m 12,6 km/h (3 Bft)
22.11.2014 23:20 8,4 C 6,7 C 93 % 1018,5 hPa 0,0 l/m 0 min 0 min 0 W/m 12,6 km/h (3 Bft)
22.11.2014 23:22 8,4 C 6,7 C 92 % 1018,5 hPa 0,0 l/m 0 min 0 min 0 W/m 10,5 km/h (2 Bft)
22.11.2014 23:24 8,4 C 6,7 C 93 % 1018,5 hPa 0,0 l/m 0 min 0 min 0 W/m 14,6 km/h (3 Bft)
22.11.2014 23:26 8,4 C 6,7 C 92 % 1018,5 hPa 0,0 l/m 0 min 0 min 0 W/m 12,6 km/h (3 Bft)
22.11.2014 23:28 8,4 C 6,7 C 92 % 1018,5 hPa 0,0 l/m 0 min 0 min 0 W/m 14,6 km/h (3 Bft)
22.11.2014 23:30 8,4 C 6,7 C 92 % 1018,6 hPa 0,0 l/m 0 min 0 min 0 W/m 12,6 km/h (3 Bft)
22.11.2014 23:32 8,4 C 6,7 C 92 % 1018,5 hPa 0,0 l/m 0 min 0 min 0 W/m 18,8 km/h (3 Bft)
22.11.2014 23:34 8,4 C 6,7 C 92 % 1018,6 hPa 0,0 l/m 0 min 0 min 0 W/m 12,6 km/h (3 Bft)
22.11.2014 23:36 8,4 C 6,7 C 92 % 1018,6 hPa 0,0 l/m 0 min 0 min 0 W/m 12,6 km/h (3 Bft)
22.11.2014 23:38 8,4 C 6,7 C 92 % 1018,5 hPa 0,0 l/m 0 min 0 min 0 W/m 14,6 km/h (3 Bft)
22.11.2014 23:40 8,4 C 6,7 C 93 % 1018,5 hPa 0,0 l/m 0 min 0 min 0 W/m 12,6 km/h (3 Bft)
22.11.2014 23:42 8,3 C 6,7 C 93 % 1018,5 hPa 0,0 l/m 0 min 0 min 0 W/m 16,7 km/h (3 Bft)
22.11.2014 23:44 8,3 C 6,7 C 93 % 1018,5 hPa 0,0 l/m 0 min 0 min 0 W/m 10,5 km/h (2 Bft)
22.11.2014 23:46 8,3 C 6,7 C 93 % 1018,6 hPa 0,0 l/m 0 min 0 min 0 W/m 14,6 km/h (3 Bft)
22.11.2014 23:48 8,3 C 6,7 C 93 % 1018,6 hPa 0,0 l/m 0 min 0 min 0 W/m 14,6 km/h (3 Bft)
22.11.2014 23:50 8,3 C 6,7 C 93 % 1018,7 hPa 0,0 l/m 0 min 0 min 0 W/m 18,8 km/h (3 Bft)
22.11.2014 23:52 8,3 C 6,7 C 93 % 1018,6 hPa 0,0 l/m 0 min 0 min 0 W/m 12,6 km/h (3 Bft)
22.11.2014 23:54 8,3 C 6,7 C 93 % 1018,6 hPa 0,0 l/m 0 min 0 min 0 W/m 12,6 km/h (3 Bft)
22.11.2014 23:56 8,3 C 6,7 C 93 % 1018,6 hPa 0,0 l/m 0 min 0 min 0 W/m 8,4 km/h (2 Bft)
22.11.2014 23:58 8,3 C 6,7 C 93 % 1018,6 hPa 0,0 l/m 0 min 0 min 0 W/m 16,7 km/h (3 Bft)
_ Min-Zeit 07:06 06:20 12:44 15:34 - - - - 00:52
Minimum _ 4,2 C 2,8 C 85 % 1017,3 hPa - - - - 6,3 km/h (2 Bft)
_ Max-Zeit 14:24 14:10 07:46 00:00 00:00 09:02 00:00 12:20 12:22
Maximum _ 11,3 C 9,4 C 94 % 1019,2 hPa 0,0 l/m 2 min 0 min 288 W/m 31,4 km/h
O-SO (5 Bft)
Durchschnitt _ 7,2 C 5,8 C 91 % 1018,0 hPa #0,0 l/m #4:19 h #0 min. 116 W/m 16,5 km/h (3 Bft)
© 2015 W. Hausmann